Observation data for Palo Duro Canyon State Park Floor on 08/12/2019      Previous  Date  Next       Current Mesonet Observations  Soil Data  Daily Summary Page  Observations in Plain Language
KPD2 120500Z 31002KT 26/16 A2999 RMK A01 T02560157  RH  054%=      5-min Rain = 0
KPD2 120501Z 33003KT 26/16 A2999 RMK A01 T02560157  RH  054%=      5-min Rain = 0
KPD2 120502Z 31003KT 26/16 A2999 RMK A01 T02560157  RH  054%=      5-min Rain = 0
KPD2 120503Z 33004KT 26/16 A2999 RMK A01 T02560158  RH  055%=      5-min Rain = 0
KPD2 120504Z 31003KT 26/16 A2999 RMK A01 T02560159  RH  055%=      5-min Rain = 0
KPD2 120505Z 33003KT 26/16 A2999 RMK A01 T02560159  RH  055%=      5-min Rain = 0
KPD2 120506Z 32002KT 26/16 A2999 RMK A01 T02560160  RH  055%=      5-min Rain = 0
KPD2 120507Z 31003KT 26/16 A2999 RMK A01 T02560160  RH  055%=      5-min Rain = 0
KPD2 120508Z 33005KT 26/16 A2999 RMK A01 T02570160  RH  055%=      5-min Rain = 0
KPD2 120509Z 32004KT 26/16 A2999 RMK A01 T02570161  RH  055%=      5-min Rain = 0
KPD2 120510Z 28002KT 26/16 A2999 RMK A01 T02560160  RH  055%=      5-min Rain = 0
KPD2 120511Z 28002KT 26/16 A30 RMK A01 T02560160  RH  055%=      5-min Rain = 0
KPD2 120512Z 29002KT 26/16 A30 RMK A01 T02560159  RH  055%=      5-min Rain = 0
KPD2 120513Z 28001KT 26/16 A30 RMK A01 T02560159  RH  055%=      5-min Rain = 0
KPD2 120514Z 06002KT 26/16 A30 RMK A01 T02560160  RH  055%=      5-min Rain = 0
KPD2 120515Z 05004KT 26/16 A30 RMK A01 T02550160  RH  056%=      5-min Rain = 0
KPD2 120516Z 05002KT 26/16 A30 RMK A01 T02550161  RH  056%=      5-min Rain = 0
KPD2 120517Z 06002KT 26/16 A30 RMK A01 T02550162  RH  056%=      5-min Rain = 0
KPD2 120518Z 06001KT 26/16 A30 RMK A01 T02550162  RH  056%=      5-min Rain = 0
KPD2 120519Z 04003KT 25/16 A30 RMK A01 T02540162  RH  057%=      5-min Rain = 0
KPD2 120520Z 07003KT 25/16 A2999 RMK A01 T02540163  RH  057%=      5-min Rain = 0
KPD2 120521Z 14000KT 25/16 A2999 RMK A01 T02530164  RH  058%=      5-min Rain = 0
KPD2 120522Z 04001KT 25/16 A2999 RMK A01 T02530164  RH  058%=      5-min Rain = 0
KPD2 120523Z 05001KT 25/16 A2999 RMK A01 T02530164  RH  058%=      5-min Rain = 0
KPD2 120524Z 29001KT 25/16 A30 RMK A01 T02530164  RH  058%=      5-min Rain = 0
KPD2 120525Z 00002KT 25/17 A2999 RMK A01 T02530166  RH  059%=      5-min Rain = 0
KPD2 120526Z 03002KT 25/17 A2999 RMK A01 T02530168  RH  059%=      5-min Rain = 0
KPD2 120527Z 01001KT 25/17 A30 RMK A01 T02530170  RH  060%=      5-min Rain = 0
KPD2 120528Z 02003KT 25/17 A30 RMK A01 T02520170  RH  060%=      5-min Rain = 0
KPD2 120529Z 01002KT 25/17 A30 RMK A01 T02520170  RH  061%=      5-min Rain = 0
KPD2 120530Z 28002KT 25/17 A30 RMK A01 T02510171  RH  061%=      5-min Rain = 0
KPD2 120531Z 26002KT 25/17 A30 RMK A01 T02500170  RH  061%=      5-min Rain = 0
KPD2 120532Z 21001KT 25/17 A30 RMK A01 T02500170  RH  061%=      5-min Rain = 0
KPD2 120533Z 19000KT 25/17 A30 RMK A01 T02500170  RH  061%=      5-min Rain = 0
KPD2 120534Z 19000KT 25/17 A30 RMK A01 T02500170  RH  061%=      5-min Rain = 0
KPD2 120535Z 17000KT 25/17 A30 RMK A01 T02490170  RH  061%=      5-min Rain = 0
KPD2 120536Z 09002KT 25/17 A30 RMK A01 T02490170  RH  062%=      5-min Rain = 0
KPD2 120537Z 04002KT 25/17 A30 RMK A01 T02480173  RH  063%=      5-min Rain = 0
KPD2 120538Z 04002KT 25/17 A30 RMK A01 T02480173  RH  063%=      5-min Rain = 0
KPD2 120539Z 09001KT 25/18 A30 RMK A01 T02480175  RH  064%=      5-min Rain = 0
KPD2 120540Z 13001KT 25/18 A30 RMK A01 T02480175  RH  064%=      5-min Rain = 0
KPD2 120541Z 18001KT 25/18 A2999 RMK A01 T02480175  RH  064%=      5-min Rain = 0
KPD2 120542Z 21002KT 25/18 A2999 RMK A01 T02480175  RH  064%=      5-min Rain = 0
KPD2 120543Z 26003KT 25/18 A2999 RMK A01 T02480175  RH  064%=      5-min Rain = 0
KPD2 120544Z 26004KT 25/18 A2999 RMK A01 T02480175  RH  064%=      5-min Rain = 0
KPD2 120545Z 25003KT 25/17 A2999 RMK A01 T02470174  RH  064%=      5-min Rain = 0
KPD2 120546Z 25004KT 25/17 A2999 RMK A01 T02460174  RH  064%=      5-min Rain = 0
KPD2 120547Z 27004KT 25/18 A30 RMK A01 T02450175  RH  065%=      5-min Rain = 0
KPD2 120548Z 26004KT 25/18 A30 RMK A01 T02460175  RH  065%=      5-min Rain = 0
KPD2 120549Z 26004KT 25/17 A30 RMK A01 T02450174  RH  065%=      5-min Rain = 0
KPD2 120550Z 25003KT 24/17 A30 RMK A01 T02440174  RH  065%=      5-min Rain = 0
KPD2 120551Z 25002KT 24/18 A30 RMK A01 T02440175  RH  065%=      5-min Rain = 0
KPD2 120552Z 25000KT 24/18 A30 RMK A01 T02440175  RH  065%=      5-min Rain = 0
KPD2 120553Z 24000KT 24/17 A30 RMK A01 T02440174  RH  065%=      5-min Rain = 0
KPD2 120554Z 24001KT 24/17 A30 RMK A01 T02440174  RH  065%=      5-min Rain = 0
KPD2 120555Z 23002KT 24/17 A2999 RMK A01 T02440174  RH  065%=      5-min Rain = 0
KPD2 120556Z 24002KT 24/17 A2999 RMK A01 T02440174  RH  065%=      5-min Rain = 0
KPD2 120557Z 26002KT 24/17 A2999 RMK A01 T02440174  RH  065%=      5-min Rain = 0
KPD2 120558Z 27001KT 24/17 A2999 RMK A01 T02430173  RH  065%=      5-min Rain = 0
KPD2 120559Z 28001KT 24/17 A2999 RMK A01 T02420173  RH  065%=      5-min Rain = 0
KPD2 120600Z 30002KT 24/17 A2999 RMK A01 T02410173  RH  066%=      5-min Rain = 0
KPD2 120601Z 28001KT 24/17 A2999 RMK A01 T02410173  RH  066%=      5-min Rain = 0
KPD2 120602Z 26000KT 24/17 A2999 RMK A01 T02390173  RH  066%=      5-min Rain = 0
KPD2 120603Z 25000KT 24/17 A2999 RMK A01 T02390173  RH  067%=      5-min Rain = 0
KPD2 120604Z 00000KT 24/17 A2999 RMK A01 T02380173  RH  067%=      5-min Rain = 0
KPD2 120605Z 23000KT 24/17 A2999 RMK A01 T02370174  RH  068%=      5-min Rain = 0
KPD2 120606Z 21002KT 24/17 A2999 RMK A01 T02360173  RH  068%=      5-min Rain = 0
KPD2 120607Z 21002KT 24/17 A2999 RMK A01 T02350174  RH  068%=      5-min Rain = 0
KPD2 120608Z 20002KT 24/17 A2999 RMK A01 T02350174  RH  069%=      5-min Rain = 0
KPD2 120609Z 20002KT 24/18 A2999 RMK A01 T02360175  RH  069%=      5-min Rain = 0
KPD2 120610Z 18001KT 24/18 A2999 RMK A01 T02360175  RH  069%=      5-min Rain = 0
KPD2 120611Z 17002KT 24/17 A2999 RMK A01 T02350174  RH  069%=      5-min Rain = 0
KPD2 120612Z 16002KT 23/17 A2998 RMK A01 T02340174  RH  069%=      5-min Rain = 0
KPD2 120613Z 15002KT 23/17 A2998 RMK A01 T02340174  RH  069%=      5-min Rain = 0
KPD2 120614Z 16002KT 23/17 A2998 RMK A01 T02330174  RH  070%=      5-min Rain = 0
KPD2 120615Z 16004KT 23/18 A2998 RMK A01 T02330175  RH  070%=      5-min Rain = 0
KPD2 120616Z 15004KT 23/18 A2998 RMK A01 T02340176  RH  070%=      5-min Rain = 0
KPD2 120617Z 14004KT 24/18 A2998 RMK A01 T02360176  RH  069%=      5-min Rain = 0
KPD2 120618Z 14004KT 24/18 A2998 RMK A01 T02370176  RH  068%=      5-min Rain = 0
KPD2 120619Z 11003KT 24/18 A2998 RMK A01 T02380176  RH  068%=      5-min Rain = 0
KPD2 120620Z 10003KT 24/18 A2998 RMK A01 T02380176  RH  068%=      5-min Rain = 0
KPD2 120621Z 11004KT 24/18 A2998 RMK A01 T02390176  RH  068%=      5-min Rain = 0
KPD2 120622Z 10004KT 24/18 A2998 RMK A01 T02390176  RH  068%=      5-min Rain = 0
KPD2 120623Z 11005KT 24/18 A2998 RMK A01 T02390176  RH  068%=      5-min Rain = 0
KPD2 120624Z 10004KT 24/18 A2998 RMK A01 T02390176  RH  068%=      5-min Rain = 0
KPD2 120625Z 09003KT 24/18 A2998 RMK A01 T02400176  RH  068%=      5-min Rain = 0
KPD2 120626Z 11002KT 24/18 A2998 RMK A01 T02400176  RH  067%=      5-min Rain = 0
KPD2 120627Z 13002KT 24/18 A2998 RMK A01 T02410176  RH  067%=      5-min Rain = 0
KPD2 120628Z 13002KT 24/18 A2998 RMK A01 T02410177  RH  067%=      5-min Rain = 0
KPD2 120629Z 16002KT 24/18 A2998 RMK A01 T02410177  RH  067%=      5-min Rain = 0
KPD2 120630Z 16002KT 24/18 A2998 RMK A01 T02410177  RH  067%=      5-min Rain = 0
KPD2 120631Z 16001KT 24/18 A2998 RMK A01 T02410177  RH  067%=      5-min Rain = 0
KPD2 120632Z 15002KT 24/18 A2998 RMK A01 T02410177  RH  068%=      5-min Rain = 0
KPD2 120633Z 14003KT 24/18 A2998 RMK A01 T02400177  RH  068%=      5-min Rain = 0
KPD2 120634Z 13003KT 24/18 A2998 RMK A01 T02390177  RH  068%=      5-min Rain = 0
KPD2 120635Z 13002KT 24/18 A2998 RMK A01 T02390177  RH  068%=      5-min Rain = 0
KPD2 120636Z 15001KT 24/18 A2998 RMK A01 T02390176  RH  068%=      5-min Rain = 0
KPD2 120637Z 15003KT 24/18 A2998 RMK A01 T02380176  RH  068%=      5-min Rain = 0
KPD2 120638Z 14003KT 24/18 A2998 RMK A01 T02380176  RH  068%=      5-min Rain = 0
KPD2 120639Z 14003KT 24/18 A2998 RMK A01 T02380177  RH  069%=      5-min Rain = 0
KPD2 120640Z 15001KT 24/18 A2998 RMK A01 T02370176  RH  068%=      5-min Rain = 0
KPD2 120641Z 15000KT 24/18 A2998 RMK A01 T02370176  RH  069%=      5-min Rain = 0
KPD2 120642Z 17000KT 24/18 A2998 RMK A01 T02360176  RH  069%=      5-min Rain = 0
KPD2 120643Z 15002KT 24/18 A2998 RMK A01 T02360176  RH  069%=      5-min Rain = 0
KPD2 120644Z 13004KT 24/18 A2998 RMK A01 T02360176  RH  069%=      5-min Rain = 0
KPD2 120645Z 13004KT 24/18 A2998 RMK A01 T02350176  RH  069%=      5-min Rain = 0
KPD2 120646Z 14004KT 24/18 A2998 RMK A01 T02350175  RH  069%=      5-min Rain = 0
KPD2 120647Z 13003KT 24/18 A2998 RMK A01 T02350176  RH  069%=      5-min Rain = 0
KPD2 120648Z 12002KT 24/18 A2998 RMK A01 T02350175  RH  069%=      5-min Rain = 0
KPD2 120649Z 10001KT 24/18 A2998 RMK A01 T02350175  RH  069%=      5-min Rain = 0
KPD2 120650Z 07002KT 23/17 A2998 RMK A01 T02340174  RH  069%=      5-min Rain = 0
KPD2 120651Z 10002KT 23/17 A2998 RMK A01 T02340173  RH  069%=      5-min Rain = 0
KPD2 120652Z 11002KT 23/17 A2998 RMK A01 T02340174  RH  069%=      5-min Rain = 0
KPD2 120653Z 12001KT 23/17 A2998 RMK A01 T02340173  RH  069%=      5-min Rain = 0
KPD2 120654Z 12002KT 23/17 A2998 RMK A01 T02340174  RH  069%=      5-min Rain = 0
KPD2 120655Z 14002KT 23/17 A2998 RMK A01 T02340173  RH  069%=      5-min Rain = 0
KPD2 120656Z 13003KT 23/17 A2998 RMK A01 T02340173  RH  069%=      5-min Rain = 0
KPD2 120657Z 14002KT 23/17 A2998 RMK A01 T02340173  RH  069%=      5-min Rain = 0
KPD2 120658Z 13002KT 23/17 A2998 RMK A01 T02340173  RH  068%=      5-min Rain = 0
KPD2 120659Z 13001KT 23/17 A2998 RMK A01 T02340173  RH  068%=      5-min Rain = 0
KPD2 120700Z 11002KT 24/17 A2998 RMK A01 T02350173  RH  068%=      5-min Rain = 0
KPD2 120701Z 12002KT 24/17 A2998 RMK A01 T02350173  RH  068%=      5-min Rain = 0
KPD2 120702Z 13000KT 23/17 A2998 RMK A01 T02340173  RH  069%=      5-min Rain = 0
KPD2 120703Z 13001KT 23/17 A2998 RMK A01 T02340174  RH  069%=      5-min Rain = 0
KPD2 120704Z 00000KT 23/17 A2997 RMK A01 T02330174  RH  069%=      5-min Rain = 0
KPD2 120705Z 00000KT 23/17 A2997 RMK A01 T02330174  RH  069%=      5-min Rain = 0
KPD2 120706Z 15001KT 23/17 A2998 RMK A01 T02330173  RH  069%=      5-min Rain = 0
KPD2 120707Z 16001KT 23/17 A2998 RMK A01 T02320173  RH  069%=      5-min Rain = 0
KPD2 120708Z 16001KT 23/17 A2998 RMK A01 T02310173  RH  070%=      5-min Rain = 0
KPD2 120709Z 17001KT 23/17 A2998 RMK A01 T02310174  RH  070%=      5-min Rain = 0
KPD2 120710Z 17000KT 23/17 A2997 RMK A01 T02310174  RH  070%=      5-min Rain = 0
KPD2 120711Z 20000KT 23/17 A2997 RMK A01 T02300173  RH  070%=      5-min Rain = 0
KPD2 120712Z 00000KT 23/17 A2997 RMK A01 T02290173  RH  071%=      5-min Rain = 0
KPD2 120713Z 31002KT 23/17 A2998 RMK A01 T02270173  RH  072%=      5-min Rain = 0
KPD2 120714Z 30002KT 23/17 A2998 RMK A01 T02260174  RH  073%=      5-min Rain = 0
KPD2 120715Z 31002KT 22/17 A2998 RMK A01 T02240174  RH  073%=      5-min Rain = 0
KPD2 120716Z 30003KT 22/17 A2998 RMK A01 T02230174  RH  073%=      5-min Rain = 0
KPD2 120717Z 28002KT 22/17 A2998 RMK A01 T02220174  RH  074%=      5-min Rain = 0
KPD2 120718Z 28001KT 22/17 A2998 RMK A01 T02220174  RH  074%=      5-min Rain = 0
KPD2 120719Z 30002KT 22/17 A2998 RMK A01 T02210174  RH  075%=      5-min Rain = 0
KPD2 120720Z 30002KT 22/17 A2998 RMK A01 T02200174  RH  075%=      5-min Rain = 0
KPD2 120721Z 31001KT 22/17 A2998 RMK A01 T02200174  RH  075%=      5-min Rain = 0
KPD2 120722Z 31000KT 22/17 A2998 RMK A01 T02190174  RH  075%=      5-min Rain = 0
KPD2 120723Z 36001KT 22/18 A2998 RMK A01 T02200175  RH  076%=      5-min Rain = 0
KPD2 120724Z 00002KT 22/18 A2998 RMK A01 T02190175  RH  076%=      5-min Rain = 0
KPD2 120725Z 35001KT 22/17 A2998 RMK A01 T02190174  RH  076%=      5-min Rain = 0
KPD2 120726Z 34001KT 22/18 A2998 RMK A01 T02190175  RH  076%=      5-min Rain = 0
KPD2 120727Z 34001KT 22/17 A2998 RMK A01 T02190174  RH  076%=      5-min Rain = 0
KPD2 120728Z 34001KT 22/18 A2998 RMK A01 T02200175  RH  076%=      5-min Rain = 0
KPD2 120729Z 32002KT 22/18 A2998 RMK A01 T02200175  RH  076%=      5-min Rain = 0
KPD2 120730Z 34003KT 22/18 A2998 RMK A01 T02200175  RH  076%=      5-min Rain = 0
KPD2 120731Z 34003KT 22/18 A2998 RMK A01 T02200175  RH  075%=      5-min Rain = 0
KPD2 120732Z 34002KT 22/18 A2998 RMK A01 T02200175  RH  075%=      5-min Rain = 0
KPD2 120733Z 33002KT 22/18 A2998 RMK A01 T02200175  RH  075%=      5-min Rain = 0
KPD2 120734Z 33001KT 22/18 A2998 RMK A01 T02200175  RH  075%=      5-min Rain = 0
KPD2 120735Z 32002KT 22/18 A2998 RMK A01 T02210175  RH  075%=      5-min Rain = 0
KPD2 120736Z 31003KT 22/18 A2998 RMK A01 T02210175  RH  075%=      5-min Rain = 0
KPD2 120737Z 31003KT 22/18 A2998 RMK A01 T02210175  RH  075%=      5-min Rain = 0
KPD2 120738Z 30003KT 22/18 A2998 RMK A01 T02210175  RH  075%=      5-min Rain = 0
KPD2 120739Z 30003KT 22/18 A2998 RMK A01 T02210175  RH  075%=      5-min Rain = 0
KPD2 120740Z 31003KT 22/18 A2998 RMK A01 T02200175  RH  075%=      5-min Rain = 0
KPD2 120741Z 31003KT 22/18 A2998 RMK A01 T02200175  RH  075%=      5-min Rain = 0
KPD2 120742Z 31003KT 22/18 A2998 RMK A01 T02200175  RH  076%=      5-min Rain = 0
KPD2 120743Z 30004KT 22/18 A2999 RMK A01 T02200175  RH  076%=      5-min Rain = 0
KPD2 120744Z 30003KT 22/18 A2999 RMK A01 T02200175  RH  076%=      5-min Rain = 0
KPD2 120745Z 29003KT 22/18 A2999 RMK A01 T02200176  RH  076%=      5-min Rain = 0
KPD2 120746Z 28002KT 22/18 A2999 RMK A01 T02200175  RH  076%=      5-min Rain = 0
KPD2 120747Z 28002KT 22/18 A2999 RMK A01 T02210176  RH  076%=      5-min Rain = 0
KPD2 120748Z 27002KT 22/18 A2999 RMK A01 T02210175  RH  075%=      5-min Rain = 0
KPD2 120749Z 28003KT 22/18 A2999 RMK A01 T02220176  RH  075%=      5-min Rain = 0
KPD2 120750Z 28003KT 22/18 A2999 RMK A01 T02220176  RH  075%=      5-min Rain = 0
KPD2 120751Z 28004KT 22/18 A2999 RMK A01 T02230176  RH  075%=      5-min Rain = 0
KPD2 120752Z 28004KT 22/18 A2999 RMK A01 T02240176  RH  074%=      5-min Rain = 0
KPD2 120753Z 29004KT 22/18 A2999 RMK A01 T02240175  RH  074%=      5-min Rain = 0
KPD2 120754Z 28003KT 23/18 A2999 RMK A01 T02250175  RH  073%=      5-min Rain = 0
KPD2 120755Z 28002KT 23/18 A2999 RMK A01 T02260175  RH  073%=      5-min Rain = 0
KPD2 120756Z 29002KT 23/18 A2998 RMK A01 T02270176  RH  073%=      5-min Rain = 0
KPD2 120757Z 29001KT 23/18 A2998 RMK A01 T02260175  RH  073%=      5-min Rain = 0
KPD2 120758Z 28001KT 23/18 A2998 RMK A01 T02260175  RH  073%=      5-min Rain = 0
KPD2 120759Z 27001KT 23/18 A2998 RMK A01 T02260175  RH  073%=      5-min Rain = 0
KPD2 120800Z 00000KT 23/18 A2998 RMK A01 T02260175  RH  073%=      5-min Rain = 0
KPD2 120801Z 14000KT 23/18 A2998 RMK A01 T02260175  RH  073%=      5-min Rain = 0
KPD2 120802Z 13001KT 23/18 A2998 RMK A01 T02260175  RH  073%=      5-min Rain = 0
KPD2 120803Z 12002KT 23/17 A2998 RMK A01 T02260174  RH  072%=      5-min Rain = 0
KPD2 120804Z 12003KT 23/18 A2998 RMK A01 T02270175  RH  072%=      5-min Rain = 0
KPD2 120805Z 12004KT 23/18 A2998 RMK A01 T02270175  RH  072%=      5-min Rain = 0
KPD2 120806Z 11004KT 23/18 A2998 RMK A01 T02270175  RH  073%=      5-min Rain = 0
KPD2 120807Z 11003KT 23/18 A2998 RMK A01 T02270175  RH  072%=      5-min Rain = 0
KPD2 120808Z 10002KT 23/17 A2998 RMK A01 T02270174  RH  072%=      5-min Rain = 0
KPD2 120809Z 11000KT 23/17 A2998 RMK A01 T02270174  RH  072%=      5-min Rain = 0
KPD2 120810Z 10000KT 23/17 A2998 RMK A01 T02270174  RH  072%=      5-min Rain = 0
KPD2 120811Z 10001KT 23/17 A2998 RMK A01 T02270174  RH  072%=      5-min Rain = 0
KPD2 120812Z 05000KT 23/17 A2998 RMK A01 T02270174  RH  072%=      5-min Rain = 0
KPD2 120813Z 31002KT 23/17 A2998 RMK A01 T02270174  RH  072%=      5-min Rain = 0
KPD2 120814Z 32003KT 23/17 A2998 RMK A01 T02270174  RH  072%=      5-min Rain = 0
KPD2 120815Z 33003KT 23/17 A2998 RMK A01 T02260174  RH  072%=      5-min Rain = 0
KPD2 120816Z 33003KT 23/17 A2998 RMK A01 T02250173  RH  073%=      5-min Rain = 0
KPD2 120817Z 33004KT 22/17 A2998 RMK A01 T02240173  RH  073%=      5-min Rain = 0
KPD2 120818Z 33003KT 22/17 A2998 RMK A01 T02230174  RH  073%=      5-min Rain = 0
KPD2 120819Z 33003KT 22/17 A2998 RMK A01 T02220173  RH  074%=      5-min Rain = 0
KPD2 120820Z 33003KT 22/17 A2998 RMK A01 T02220174  RH  074%=      5-min Rain = 0
KPD2 120821Z 32002KT 22/17 A2998 RMK A01 T02220174  RH  074%=      5-min Rain = 0
KPD2 120822Z 31002KT 22/17 A2998 RMK A01 T02220173  RH  074%=      5-min Rain = 0
KPD2 120823Z 29002KT 22/17 A2998 RMK A01 T02220174  RH  074%=      5-min Rain = 0
KPD2 120824Z 29001KT 22/17 A2997 RMK A01 T02220174  RH  074%=      5-min Rain = 0
KPD2 120825Z 29001KT 22/17 A2997 RMK A01 T02220174  RH  074%=      5-min Rain = 0
KPD2 120826Z 28001KT 22/17 A2997 RMK A01 T02210173  RH  074%=      5-min Rain = 0
KPD2 120827Z 28002KT 22/17 A2997 RMK A01 T02210174  RH  074%=      5-min Rain = 0
KPD2 120828Z 29003KT 22/17 A2998 RMK A01 T02210174  RH  074%=      5-min Rain = 0
KPD2 120829Z 29003KT 22/18 A2998 RMK A01 T02210175  RH  075%=      5-min Rain = 0
KPD2 120830Z 29004KT 22/18 A2998 RMK A01 T02210175  RH  075%=      5-min Rain = 0
KPD2 120831Z 29003KT 22/18 A2998 RMK A01 T02210175  RH  075%=      5-min Rain = 0
KPD2 120832Z 29004KT 22/18 A2998 RMK A01 T02210175  RH  075%=      5-min Rain = 0
KPD2 120833Z 30004KT 22/18 A2998 RMK A01 T02210175  RH  075%=      5-min Rain = 0
KPD2 120834Z 29004KT 22/18 A2998 RMK A01 T02210175  RH  075%=      5-min Rain = 0
KPD2 120835Z 29003KT 22/18 A2998 RMK A01 T02210175  RH  075%=      5-min Rain = 0
KPD2 120836Z 29003KT 22/18 A2998 RMK A01 T02200175  RH  075%=      5-min Rain = 0
KPD2 120837Z 30003KT 22/18 A2997 RMK A01 T02200175  RH  076%=      5-min Rain = 0
KPD2 120838Z 31003KT 22/18 A2997 RMK A01 T02200175  RH  076%=      5-min Rain = 0
KPD2 120839Z 31003KT 22/18 A2997 RMK A01 T02190175  RH  076%=      5-min Rain = 0
KPD2 120840Z 31003KT 22/17 A2997 RMK A01 T02190174  RH  076%=      5-min Rain = 0
KPD2 120841Z 31003KT 22/17 A2998 RMK A01 T02180174  RH  076%=      5-min Rain = 0
KPD2 120842Z 33003KT 22/17 A2998 RMK A01 T02180174  RH  076%=      5-min Rain = 0
KPD2 120843Z 34003KT 22/18 A2998 RMK A01 T02180175  RH  077%=      5-min Rain = 0
KPD2 120844Z 34003KT 22/18 A2997 RMK A01 T02170175  RH  077%=      5-min Rain = 0
KPD2 120845Z 35004KT 22/18 A2997 RMK A01 T02170175  RH  077%=      5-min Rain = 0
KPD2 120846Z 33004KT 22/18 A2997 RMK A01 T02170175  RH  077%=      5-min Rain = 0
KPD2 120847Z 31003KT 22/18 A2997 RMK A01 T02170175  RH  077%=      5-min Rain = 0
KPD2 120848Z 28002KT 22/18 A2997 RMK A01 T02170175  RH  077%=      5-min Rain = 0
KPD2 120849Z 30003KT 22/18 A2997 RMK A01 T02170175  RH  077%=      5-min Rain = 0
KPD2 120850Z 30003KT 22/18 A2997 RMK A01 T02170175  RH  077%=      5-min Rain = 0
KPD2 120851Z 31003KT 22/18 A2997 RMK A01 T02170175  RH  077%=      5-min Rain = 0
KPD2 120852Z 30003KT 22/18 A2997 RMK A01 T02170175  RH  077%=      5-min Rain = 0
KPD2 120853Z 28002KT 22/18 A2997 RMK A01 T02160175  RH  077%=      5-min Rain = 0
KPD2 120854Z 28003KT 22/18 A2997 RMK A01 T02160175  RH  077%=      5-min Rain = 0
KPD2 120855Z 30004KT 22/18 A2997 RMK A01 T02160175  RH  077%=      5-min Rain = 0
KPD2 120856Z 29004KT 22/18 A2997 RMK A01 T02160175  RH  077%=      5-min Rain = 0
KPD2 120857Z 28003KT 22/18 A2997 RMK A01 T02160175  RH  077%=      5-min Rain = 0
KPD2 120858Z 29002KT 22/18 A2997 RMK A01 T02160175  RH  077%=      5-min Rain = 0
KPD2 120859Z 31003KT 22/18 A2997 RMK A01 T02170175  RH  077%=      5-min Rain = 0
KPD2 120900Z 32003KT 22/18 A2997 RMK A01 T02170175  RH  077%=      5-min Rain = 0
KPD2 120901Z 32003KT 22/18 A2997 RMK A01 T02160175  RH  077%=      5-min Rain = 0
KPD2 120902Z 32003KT 22/18 A2997 RMK A01 T02160175  RH  077%=      5-min Rain = 0
KPD2 120903Z 33004KT 22/18 A2997 RMK A01 T02150175  RH  078%=      5-min Rain = 0
KPD2 120904Z 33004KT 22/18 A2997 RMK A01 T02150175  RH  078%=      5-min Rain = 0
KPD2 120905Z 33002KT 22/18 A2997 RMK A01 T02150175  RH  078%=      5-min Rain = 0
KPD2 120906Z 35002KT 22/18 A2997 RMK A01 T02150175  RH  078%=      5-min Rain = 0
KPD2 120907Z 35003KT 22/18 A2997 RMK A01 T02150175  RH  078%=      5-min Rain = 0
KPD2 120908Z 35003KT 21/18 A2997 RMK A01 T02140175  RH  078%=      5-min Rain = 0
KPD2 120909Z 34001KT 21/18 A2997 RMK A01 T02140175  RH  078%=      5-min Rain = 0
KPD2 120910Z 34000KT 21/18 A2997 RMK A01 T02140175  RH  078%=      5-min Rain = 0
KPD2 120911Z 33003KT 21/17 A2996 RMK A01 T02140174  RH  078%=      5-min Rain = 0
KPD2 120912Z 34003KT 21/17 A2996 RMK A01 T02140174  RH  078%=      5-min Rain = 0
KPD2 120913Z 32000KT 22/17 A2996 RMK A01 T02150174  RH  078%=      5-min Rain = 0
KPD2 120914Z 19000KT 22/18 A2996 RMK A01 T02160175  RH  077%=      5-min Rain = 0
KPD2 120915Z 00000KT 22/17 A2996 RMK A01 T02160174  RH  077%=      5-min Rain = 0
KPD2 120916Z 25000KT 22/17 A2996 RMK A01 T02170174  RH  077%=      5-min Rain = 0
KPD2 120917Z 21001KT 22/17 A2996 RMK A01 T02170174  RH  077%=      5-min Rain = 0
KPD2 120918Z 21000KT 22/18 A2996 RMK A01 T02180175  RH  077%=      5-min Rain = 0
KPD2 120919Z 26000KT 22/18 A2996 RMK A01 T02180175  RH  076%=      5-min Rain = 0
KPD2 120920Z 00000KT 22/18 A2996 RMK A01 T02180175  RH  076%=      5-min Rain = 0
KPD2 120921Z 00000KT 22/18 A2996 RMK A01 T02180175  RH  076%=      5-min Rain = 0
KPD2 120922Z 00000KT 22/18 A2996 RMK A01 T02180175  RH  076%=      5-min Rain = 0
KPD2 120923Z 00000KT 22/18 A2996 RMK A01 T02190175  RH  076%=      5-min Rain = 0
KPD2 120924Z 00000KT 22/18 A2996 RMK A01 T02190175  RH  076%=      5-min Rain = 0
KPD2 120925Z 00000KT 22/18 A2996 RMK A01 T02190175  RH  076%=      5-min Rain = 0
KPD2 120926Z 00000KT 22/18 A2996 RMK A01 T02190175  RH  076%=      5-min Rain = 0
KPD2 120927Z 00000KT 22/18 A2996 RMK A01 T02190175  RH  076%=      5-min Rain = 0
KPD2 120928Z 00000KT 22/18 A2996 RMK A01 T02180175  RH  076%=      5-min Rain = 0
KPD2 120929Z 00000KT 22/18 A2996 RMK A01 T02180175  RH  076%=      5-min Rain = 0
KPD2 120930Z 21000KT 22/18 A2996 RMK A01 T02180175  RH  076%=      5-min Rain = 0
KPD2 120931Z 00000KT 22/18 A2996 RMK A01 T02180175  RH  077%=      5-min Rain = 0
KPD2 120932Z 00000KT 22/18 A2996 RMK A01 T02170175  RH  077%=      5-min Rain = 0
KPD2 120933Z 00000KT 22/18 A2996 RMK A01 T02170175  RH  077%=      5-min Rain = 0
KPD2 120934Z 24000KT 22/18 A2996 RMK A01 T02160175  RH  077%=      5-min Rain = 0
KPD2 120935Z 24000KT 22/18 A2996 RMK A01 T02160175  RH  077%=      5-min Rain = 0
KPD2 120936Z 23000KT 22/18 A2996 RMK A01 T02150175  RH  078%=      5-min Rain = 0
KPD2 120937Z 23001KT 22/17 A2996 RMK A01 T02150174  RH  078%=      5-min Rain = 0
KPD2 120938Z 22001KT 22/18 A2996 RMK A01 T02150175  RH  078%=      5-min Rain = 0
KPD2 120939Z 22001KT 22/18 A2996 RMK A01 T02150175  RH  078%=      5-min Rain = 0
KPD2 120940Z 22000KT 22/18 A2996 RMK A01 T02150175  RH  078%=      5-min Rain = 0
KPD2 120941Z 24000KT 22/18 A2997 RMK A01 T02150175  RH  078%=      5-min Rain = 0
KPD2 120942Z 27001KT 22/18 A2997 RMK A01 T02150175  RH  078%=      5-min Rain = 0
KPD2 120943Z 29002KT 22/18 A2997 RMK A01 T02150175  RH  078%=      5-min Rain = 0
KPD2 120944Z 30002KT 21/18 A2997 RMK A01 T02140175  RH  078%=      5-min Rain = 0
KPD2 120945Z 31002KT 21/17 A2997 RMK A01 T02140174  RH  078%=      5-min Rain = 0
KPD2 120946Z 33002KT 21/17 A2997 RMK A01 T02130174  RH  078%=      5-min Rain = 0
KPD2 120947Z 35002KT 21/17 A2997 RMK A01 T02130174  RH  078%=      5-min Rain = 0
KPD2 120948Z 33003KT 21/17 A2997 RMK A01 T02120173  RH  079%=      5-min Rain = 0
KPD2 120949Z 33002KT 21/17 A2997 RMK A01 T02110173  RH  079%=      5-min Rain = 0
KPD2 120950Z 34002KT 21/17 A2997 RMK A01 T02110173  RH  079%=      5-min Rain = 0
KPD2 120951Z 34002KT 21/17 A2997 RMK A01 T02100173  RH  079%=      5-min Rain = 0
KPD2 120952Z 33001KT 21/17 A2997 RMK A01 T02100173  RH  079%=      5-min Rain = 0
KPD2 120953Z 31001KT 21/17 A2997 RMK A01 T02090173  RH  080%=      5-min Rain = 0
KPD2 120954Z 31001KT 21/17 A2997 RMK A01 T02090173  RH  080%=      5-min Rain = 0
KPD2 120955Z 30002KT 21/17 A2997 RMK A01 T02090173  RH  080%=      5-min Rain = 0
KPD2 120956Z 30002KT 21/17 A2997 RMK A01 T02100173  RH  080%=      5-min Rain = 0
KPD2 120957Z 30002KT 21/17 A2997 RMK A01 T02090173  RH  080%=      5-min Rain = 0
KPD2 120958Z 29002KT 21/17 A2997 RMK A01 T02090173  RH  080%=      5-min Rain = 0
KPD2 120959Z 29003KT 21/17 A2997 RMK A01 T02090174  RH  080%=      5-min Rain = 0
KPD2 121000Z 29003KT 21/17 A2997 RMK A01 T02090173  RH  080%=      5-min Rain = 0
KPD2 121001Z 29003KT 21/17 A2997 RMK A01 T02090173  RH  080%=      5-min Rain = 0
KPD2 121002Z 29002KT 21/17 A2997 RMK A01 T02090173  RH  080%=      5-min Rain = 0
KPD2 121003Z 29002KT 21/17 A2997 RMK A01 T02090173  RH  080%=      5-min Rain = 0
KPD2 121004Z 29002KT 21/17 A2997 RMK A01 T02080173  RH  080%=      5-min Rain = 0
KPD2 121005Z 30002KT 21/17 A2997 RMK A01 T02080173  RH  080%=      5-min Rain = 0
KPD2 121006Z 29001KT 21/17 A2997 RMK A01 T02080173  RH  080%=      5-min Rain = 0
KPD2 121007Z 30001KT 21/17 A2997 RMK A01 T02070173  RH  081%=      5-min Rain = 0
KPD2 121008Z 30001KT 21/17 A2997 RMK A01 T02070173  RH  081%=      5-min Rain = 0
KPD2 121009Z 30000KT 21/17 A2998 RMK A01 T02070173  RH  081%=      5-min Rain = 0
KPD2 121010Z 30000KT 21/17 A2998 RMK A01 T02060173  RH  081%=      5-min Rain = 0
KPD2 121011Z 30000KT 21/17 A2998 RMK A01 T02060173  RH  081%=      5-min Rain = 0
KPD2 121012Z 30001KT 21/17 A2998 RMK A01 T02060173  RH  081%=      5-min Rain = 0
KPD2 121013Z 30000KT 21/17 A2998 RMK A01 T02060173  RH  082%=      5-min Rain = 0
KPD2 121014Z 30000KT 21/17 A2998 RMK A01 T02060173  RH  082%=      5-min Rain = 0
KPD2 121015Z 31001KT 21/17 A2998 RMK A01 T02060174  RH  082%=      5-min Rain = 0
KPD2 121016Z 31002KT 21/17 A2998 RMK A01 T02060174  RH  082%=      5-min Rain = 0
KPD2 121017Z 33002KT 21/17 A2998 RMK A01 T02070174  RH  081%=      5-min Rain = 0
KPD2 121018Z 33002KT 21/17 A2998 RMK A01 T02070174  RH  081%=      5-min Rain = 0
KPD2 121019Z 33001KT 21/17 A2998 RMK A01 T02070174  RH  081%=      5-min Rain = 0
KPD2 121020Z 33001KT 21/17 A2998 RMK A01 T02070174  RH  081%=      5-min Rain = 0
KPD2 121021Z 33001KT 21/17 A2997 RMK A01 T02070174  RH  081%=      5-min Rain = 0
KPD2 121022Z 33000KT 21/17 A2997 RMK A01 T02070173  RH  081%=      5-min Rain = 0
KPD2 121023Z 26000KT 21/17 A2997 RMK A01 T02070173  RH  081%=      5-min Rain = 0
KPD2 121024Z 25002KT 21/17 A2998 RMK A01 T02060173  RH  081%=      5-min Rain = 0
KPD2 121025Z 24002KT 21/17 A2998 RMK A01 T02060173  RH  081%=      5-min Rain = 0
KPD2 121026Z 26003KT 21/17 A2998 RMK A01 T02060173  RH  081%=      5-min Rain = 0
KPD2 121027Z 27002KT 21/17 A2998 RMK A01 T02060172  RH  081%=      5-min Rain = 0
KPD2 121028Z 28002KT 21/17 A2998 RMK A01 T02050172  RH  081%=      5-min Rain = 0
KPD2 121029Z 30002KT 21/17 A2998 RMK A01 T02050172  RH  081%=      5-min Rain = 0
KPD2 121030Z 32002KT 20/17 A2998 RMK A01 T02040172  RH  081%=      5-min Rain = 0
KPD2 121031Z 32003KT 20/17 A2998 RMK A01 T02040171  RH  082%=      5-min Rain = 0
KPD2 121032Z 33003KT 20/17 A2998 RMK A01 T02030171  RH  082%=      5-min Rain = 0
KPD2 121033Z 33003KT 20/17 A2998 RMK A01 T02020171  RH  082%=      5-min Rain = 0
KPD2 121034Z 34003KT 20/17 A2998 RMK A01 T02020171  RH  082%=      5-min Rain = 0
KPD2 121035Z 35002KT 20/17 A2998 RMK A01 T02010171  RH  083%=      5-min Rain = 0
KPD2 121036Z 34003KT 20/17 A2998 RMK A01 T02010171  RH  083%=      5-min Rain = 0
KPD2 121037Z 35002KT 20/17 A2998 RMK A01 T02010171  RH  083%=      5-min Rain = 0
KPD2 121038Z 34002KT 20/17 A2998 RMK A01 T02010171  RH  083%=      5-min Rain = 0
KPD2 121039Z 33002KT 20/17 A2998 RMK A01 T02010171  RH  083%=      5-min Rain = 0
KPD2 121040Z 31003KT 20/17 A2998 RMK A01 T02010172  RH  083%=      5-min Rain = 0
KPD2 121041Z 30002KT 20/17 A2998 RMK A01 T02010172  RH  083%=      5-min Rain = 0
KPD2 121042Z 30002KT 20/17 A2998 RMK A01 T02020172  RH  083%=      5-min Rain = 0
KPD2 121043Z 30002KT 20/17 A2998 RMK A01 T02010171  RH  083%=      5-min Rain = 0
KPD2 121044Z 30003KT 20/17 A2998 RMK A01 T02010171  RH  083%=      5-min Rain = 0
KPD2 121045Z 30003KT 20/17 A2998 RMK A01 T02010171  RH  083%=      5-min Rain = 0
KPD2 121046Z 29002KT 20/17 A2998 RMK A01 T02010171  RH  083%=      5-min Rain = 0
KPD2 121047Z 28002KT 20/17 A2998 RMK A01 T02020171  RH  083%=      5-min Rain = 0
KPD2 121048Z 28002KT 20/17 A2998 RMK A01 T02020171  RH  083%=      5-min Rain = 0
KPD2 121049Z 30003KT 20/17 A2998 RMK A01 T02010170  RH  082%=      5-min Rain = 0
KPD2 121050Z 29003KT 20/17 A2998 RMK A01 T02020170  RH  082%=      5-min Rain = 0
KPD2 121051Z 29003KT 20/17 A2998 RMK A01 T02030170  RH  081%=      5-min Rain = 0
KPD2 121052Z 29003KT 20/17 A2998 RMK A01 T02030169  RH  081%=      5-min Rain = 0
KPD2 121053Z 29003KT 20/17 A2998 RMK A01 T02040168  RH  080%=      5-min Rain = 0
KPD2 121054Z 29004KT 20/17 A2998 RMK A01 T02040168  RH  080%=      5-min Rain = 0
KPD2 121055Z 30003KT 20/17 A2998 RMK A01 T02040168  RH  080%=      5-min Rain = 0
KPD2 121056Z 30004KT 20/17 A2998 RMK A01 T02040168  RH  079%=      5-min Rain = 0
KPD2 121057Z 29003KT 20/17 A2998 RMK A01 T02040167  RH  079%=      5-min Rain = 0
KPD2 121058Z 30004KT 20/17 A2998 RMK A01 T02040167  RH  079%=      5-min Rain = 0
KPD2 121059Z 30002KT 21/17 A2998 RMK A01 T02050168  RH  079%=      5-min Rain = 0
KPD2 121100Z 34001KT 20/17 A2998 RMK A01 T02040167  RH  079%=      5-min Rain = 0
KPD2 121101Z 00002KT 20/17 A2998 RMK A01 T02030167  RH  080%=      5-min Rain = 0
KPD2 121102Z 36003KT 20/17 A2998 RMK A01 T02030167  RH  080%=      5-min Rain = 0
KPD2 121103Z 35002KT 20/17 A2998 RMK A01 T02030168  RH  080%=      5-min Rain = 0
KPD2 121104Z 35002KT 20/17 A2998 RMK A01 T02020168  RH  081%=      5-min Rain = 0
KPD2 121105Z 34002KT 20/17 A2998 RMK A01 T02010168  RH  081%=      5-min Rain = 0
KPD2 121106Z 33002KT 20/17 A2998 RMK A01 T02010168  RH  081%=      5-min Rain = 0
KPD2 121107Z 33001KT 20/17 A2998 RMK A01 T02010168  RH  081%=      5-min Rain = 0
KPD2 121108Z 33002KT 20/17 A2998 RMK A01 T02000168  RH  082%=      5-min Rain = 0
KPD2 121109Z 33002KT 20/17 A2998 RMK A01 T02000168  RH  082%=      5-min Rain = 0
KPD2 121110Z 34002KT 20/17 A2998 RMK A01 T02000168  RH  082%=      5-min Rain = 0
KPD2 121111Z 33002KT 20/17 A2998 RMK A01 T02000168  RH  082%=      5-min Rain = 0
KPD2 121112Z 32002KT 20/17 A2998 RMK A01 T02010168  RH  082%=      5-min Rain = 0
KPD2 121113Z 31002KT 20/17 A2998 RMK A01 T02010168  RH  082%=      5-min Rain = 0
KPD2 121114Z 30002KT 20/17 A2998 RMK A01 T02010169  RH  082%=      5-min Rain = 0
KPD2 121115Z 31002KT 20/17 A2998 RMK A01 T02020169  RH  081%=      5-min Rain = 0
KPD2 121116Z 32002KT 20/17 A2998 RMK A01 T02030169  RH  081%=      5-min Rain = 0
KPD2 121117Z 31001KT 20/17 A2998 RMK A01 T02030168  RH  080%=      5-min Rain = 0
KPD2 121118Z 32001KT 20/17 A2998 RMK A01 T02040168  RH  080%=      5-min Rain = 0
KPD2 121119Z 31001KT 20/17 A2998 RMK A01 T02030167  RH  080%=      5-min Rain = 0
KPD2 121120Z 30001KT 20/17 A2998 RMK A01 T02040168  RH  080%=      5-min Rain = 0
KPD2 121121Z 29001KT 20/17 A2998 RMK A01 T02040167  RH  079%=      5-min Rain = 0
KPD2 121122Z 29001KT 20/17 A2998 RMK A01 T02040167  RH  079%=      5-min Rain = 0
KPD2 121123Z 29001KT 20/17 A2998 RMK A01 T02040167  RH  079%=      5-min Rain = 0
KPD2 121124Z 30001KT 20/17 A2998 RMK A01 T02040166  RH  079%=      5-min Rain = 0
KPD2 121125Z 31001KT 20/17 A2998 RMK A01 T02040166  RH  079%=      5-min Rain = 0
KPD2 121126Z 32000KT 20/17 A2998 RMK A01 T02040165  RH  079%=      5-min Rain = 0
KPD2 121127Z 34001KT 20/17 A2998 RMK A01 T02040166  RH  078%=      5-min Rain = 0
KPD2 121128Z 35001KT 20/17 A2998 RMK A01 T02040166  RH  078%=      5-min Rain = 0
KPD2 121129Z 35001KT 21/17 A2998 RMK A01 T02050166  RH  078%=      5-min Rain = 0
KPD2 121130Z 35002KT 21/17 A2998 RMK A01 T02050165  RH  078%=      5-min Rain = 0
KPD2 121131Z 35002KT 21/17 A2998 RMK A01 T02050165  RH  078%=      5-min Rain = 0
KPD2 121132Z 34002KT 21/17 A2998 RMK A01 T02050165  RH  078%=      5-min Rain = 0
KPD2 121133Z 34002KT 21/17 A2998 RMK A01 T02050166  RH  078%=      5-min Rain = 0
KPD2 121134Z 35002KT 21/17 A2998 RMK A01 T02050166  RH  078%=      5-min Rain = 0
KPD2 121135Z 36002KT 21/17 A2998 RMK A01 T02050166  RH  078%=      5-min Rain = 0
KPD2 121136Z 00001KT 21/17 A2998 RMK A01 T02050167  RH  079%=      5-min Rain = 0
KPD2 121137Z 01002KT 21/17 A2998 RMK A01 T02050167  RH  079%=      5-min Rain = 0
KPD2 121138Z 01002KT 21/17 A2998 RMK A01 T02050167  RH  079%=      5-min Rain = 0
KPD2 121139Z 02001KT 21/17 A2998 RMK A01 T02050167  RH  079%=      5-min Rain = 0
KPD2 121140Z 02001KT 21/17 A2998 RMK A01 T02050167  RH  079%=      5-min Rain = 0
KPD2 121141Z 02001KT 21/17 A2998 RMK A01 T02050167  RH  079%=      5-min Rain = 0
KPD2 121142Z 02001KT 21/17 A2998 RMK A01 T02050167  RH  079%=      5-min Rain = 0
KPD2 121143Z 02000KT 21/17 A2998 RMK A01 T02050168  RH  079%=      5-min Rain = 0
KPD2 121144Z 02000KT 21/17 A2998 RMK A01 T02050168  RH  079%=      5-min Rain = 0
KPD2 121145Z 02001KT 21/17 A2998 RMK A01 T02060168  RH  079%=      5-min Rain = 0
KPD2 121146Z 02001KT 21/17 A2998 RMK A01 T02060169  RH  079%=      5-min Rain = 0
KPD2 121147Z 02000KT 21/17 A2998 RMK A01 T02060168  RH  079%=      5-min Rain = 0
KPD2 121148Z 02001KT 21/17 A2998 RMK A01 T02060169  RH  079%=      5-min Rain = 0
KPD2 121149Z 02001KT 21/17 A2998 RMK A01 T02060169  RH  079%=      5-min Rain = 0
KPD2 121150Z 02001KT 21/17 A2998 RMK A01 T02060169  RH  079%=      5-min Rain = 0
KPD2 121151Z 02001KT 21/17 A2998 RMK A01 T02060169  RH  079%=      5-min Rain = 0
KPD2 121152Z 02001KT 21/17 A2998 RMK A01 T02060169  RH  079%=      5-min Rain = 0
KPD2 121153Z 02001KT 21/17 A2997 RMK A01 T02060169  RH  079%=      5-min Rain = 0
KPD2 121154Z 02001KT 21/17 A2997 RMK A01 T02060169  RH  079%=      5-min Rain = 0
KPD2 121155Z 02001KT 21/17 A2997 RMK A01 T02060168  RH  079%=      5-min Rain = 0
KPD2 121156Z 02001KT 21/17 A2997 RMK A01 T02060169  RH  079%=      5-min Rain = 0
KPD2 121157Z 02001KT 21/17 A2997 RMK A01 T02050168  RH  079%=      5-min Rain = 0
KPD2 121158Z 02001KT 21/17 A2997 RMK A01 T02050168  RH  079%=      5-min Rain = 0
KPD2 121159Z 02001KT 21/17 A2997 RMK A01 T02050169  RH  080%=      5-min Rain = 0
KPD2 121200Z 02000KT 20/17 A2997 RMK A01 T02040169  RH  080%=      5-min Rain = 0
KPD2 121201Z 00000KT 20/17 A2997 RMK A01 T02040168  RH  080%=      5-min Rain = 0
KPD2 121202Z 00000KT 20/17 A2997 RMK A01 T02040168  RH  080%=      5-min Rain = 0
KPD2 121203Z 02000KT 20/17 A2997 RMK A01 T02030168  RH  080%=      5-min Rain = 0
KPD2 121204Z 02000KT 20/17 A2997 RMK A01 T02030168  RH  081%=      5-min Rain = 0
KPD2 121205Z 26001KT 20/17 A2997 RMK A01 T02020168  RH  081%=      5-min Rain = 0
KPD2 121206Z 26002KT 20/17 A2997 RMK A01 T02010167  RH  080%=      5-min Rain = 0
KPD2 121207Z 25002KT 20/17 A2998 RMK A01 T02010166  RH  080%=      5-min Rain = 0
KPD2 121208Z 24002KT 20/17 A2998 RMK A01 T02010166  RH  080%=      5-min Rain = 0
KPD2 121209Z 24001KT 20/17 A2997 RMK A01 T02010166  RH  081%=      5-min Rain = 0
KPD2 121210Z 25001KT 20/17 A2997 RMK A01 T02000166  RH  081%=      5-min Rain = 0
KPD2 121211Z 25001KT 20/17 A2997 RMK A01 T01990166  RH  081%=      5-min Rain = 0
KPD2 121212Z 25001KT 20/17 A2997 RMK A01 T01990166  RH  081%=      5-min Rain = 0
KPD2 121213Z 25001KT 20/17 A2998 RMK A01 T01980166  RH  082%=      5-min Rain = 0
KPD2 121214Z 25000KT 20/17 A2997 RMK A01 T01980166  RH  082%=      5-min Rain = 0
KPD2 121215Z 25000KT 20/17 A2997 RMK A01 T01980166  RH  082%=      5-min Rain = 0
KPD2 121216Z 25001KT 20/17 A2998 RMK A01 T01970166  RH  082%=      5-min Rain = 0
KPD2 121217Z 25000KT 20/17 A2997 RMK A01 T01970166  RH  082%=      5-min Rain = 0
KPD2 121218Z 00000KT 20/17 A2997 RMK A01 T01970166  RH  082%=      5-min Rain = 0
KPD2 121219Z 00000KT 20/17 A2997 RMK A01 T01970167  RH  083%=      5-min Rain = 0
KPD2 121220Z 26000KT 20/17 A2998 RMK A01 T01970167  RH  083%=      5-min Rain = 0
KPD2 121221Z 26000KT 20/17 A2998 RMK A01 T01970167  RH  083%=      5-min Rain = 0
KPD2 121222Z 36001KT 20/17 A2997 RMK A01 T01970167  RH  083%=      5-min Rain = 0
KPD2 121223Z 01000KT 20/17 A2997 RMK A01 T01970167  RH  083%=      5-min Rain = 0
KPD2 121224Z 00000KT 20/17 A2997 RMK A01 T01970168  RH  083%=      5-min Rain = 0
KPD2 121225Z 01000KT 20/17 A2997 RMK A01 T01970168  RH  083%=      5-min Rain = 0
KPD2 121226Z 00000KT 20/17 A2997 RMK A01 T01970167  RH  083%=      5-min Rain = 0
KPD2 121227Z 00000KT 20/17 A2997 RMK A01 T01970168  RH  083%=      5-min Rain = 0
KPD2 121228Z 00000KT 20/17 A2997 RMK A01 T01970168  RH  083%=      5-min Rain = 0
KPD2 121229Z 00000KT 20/17 A2997 RMK A01 T01980168  RH  083%=      5-min Rain = 0
KPD2 121230Z 00000KT 20/17 A2997 RMK A01 T01970168  RH  083%=      5-min Rain = 0
KPD2 121231Z 00000KT 20/17 A2997 RMK A01 T01980168  RH  083%=      5-min Rain = 0
KPD2 121232Z 00000KT 20/17 A2997 RMK A01 T01970168  RH  083%=      5-min Rain = 0
KPD2 121233Z 00000KT 20/17 A2998 RMK A01 T01980168  RH  083%=      5-min Rain = 0
KPD2 121234Z 00000KT 20/17 A2998 RMK A01 T01980168  RH  083%=      5-min Rain = 0
KPD2 121235Z 01000KT 20/17 A2998 RMK A01 T01980168  RH  083%=      5-min Rain = 0
KPD2 121236Z 01000KT 20/17 A2998 RMK A01 T01980168  RH  083%=      5-min Rain = 0
KPD2 121237Z 00000KT 20/17 A2998 RMK A01 T01990168  RH  082%=      5-min Rain = 0
KPD2 121238Z 01000KT 20/17 A2998 RMK A01 T01990168  RH  082%=      5-min Rain = 0
KPD2 121239Z 00000KT 20/17 A2998 RMK A01 T02000168  RH  082%=      5-min Rain = 0
KPD2 121240Z 00000KT 20/17 A2998 RMK A01 T02000168  RH  082%=      5-min Rain = 0
KPD2 121241Z 00000KT 20/17 A2998 RMK A01 T02000169  RH  082%=      5-min Rain = 0
KPD2 121242Z 01000KT 20/17 A2998 RMK A01 T02000169  RH  082%=      5-min Rain = 0
KPD2 121243Z 00000KT 20/17 A2998 RMK A01 T02000169  RH  082%=      5-min Rain = 0
KPD2 121244Z 00000KT 20/17 A2998 RMK A01 T02000169  RH  082%=      5-min Rain = 0
KPD2 121245Z 00000KT 20/17 A2998 RMK A01 T02000169  RH  082%=      5-min Rain = 0
KPD2 121246Z 00000KT 20/17 A2998 RMK A01 T02010170  RH  082%=      5-min Rain = 0
KPD2 121247Z 00000KT 20/17 A2998 RMK A01 T02010168  RH  082%=      5-min Rain = 0
KPD2 121248Z 31001KT 20/17 A2998 RMK A01 T02000168  RH  081%=      5-min Rain = 0
KPD2 121249Z 31001KT 20/17 A2998 RMK A01 T02010168  RH  081%=      5-min Rain = 0
KPD2 121250Z 31001KT 20/17 A2998 RMK A01 T02000168  RH  081%=      5-min Rain = 0
KPD2 121251Z 31001KT 20/17 A2998 RMK A01 T02000168  RH  082%=      5-min Rain = 0
KPD2 121252Z 31001KT 20/17 A2998 RMK A01 T02000169  RH  082%=      5-min Rain = 0
KPD2 121253Z 31001KT 20/17 A2998 RMK A01 T02000169  RH  082%=      5-min Rain = 0
KPD2 121254Z 31000KT 20/17 A2998 RMK A01 T01990169  RH  082%=      5-min Rain = 0
KPD2 121255Z 31001KT 20/17 A2998 RMK A01 T01990169  RH  082%=      5-min Rain = 0
KPD2 121256Z 32001KT 20/17 A2998 RMK A01 T01990168  RH  082%=      5-min Rain = 0
KPD2 121257Z 32001KT 20/17 A2998 RMK A01 T02000169  RH  083%=      5-min Rain = 0
KPD2 121258Z 33002KT 20/17 A2998 RMK A01 T01990169  RH  083%=      5-min Rain = 0
KPD2 121259Z 33002KT 20/17 A2998 RMK A01 T01990170  RH  083%=      5-min Rain = 0
KPD2 121300Z 33002KT 20/17 A2998 RMK A01 T01990169  RH  083%=      5-min Rain = 0
KPD2 121301Z 33002KT 20/17 A2998 RMK A01 T01990170  RH  083%=      5-min Rain = 0
KPD2 121302Z 33002KT 20/17 A2998 RMK A01 T01990170  RH  083%=      5-min Rain = 0
KPD2 121303Z 35002KT 20/17 A2998 RMK A01 T01990171  RH  084%=      5-min Rain = 0
KPD2 121304Z 00002KT 20/17 A2998 RMK A01 T02000171  RH  084%=      5-min Rain = 0
KPD2 121305Z 00002KT 20/17 A2998 RMK A01 T01990171  RH  084%=      5-min Rain = 0
KPD2 121306Z 00002KT 20/17 A2998 RMK A01 T01990170  RH  083%=      5-min Rain = 0
KPD2 121307Z 00001KT 20/17 A2998 RMK A01 T01990170  RH  083%=      5-min Rain = 0
KPD2 121308Z 00001KT 20/17 A2998 RMK A01 T02000170  RH  083%=      5-min Rain = 0
KPD2 121309Z 00001KT 20/17 A2998 RMK A01 T02000170  RH  083%=      5-min Rain = 0
KPD2 121310Z 00001KT 20/17 A2998 RMK A01 T02000170  RH  083%=      5-min Rain = 0
KPD2 121311Z 00001KT 20/17 A2998 RMK A01 T02010170  RH  083%=      5-min Rain = 0
KPD2 121312Z 00001KT 20/17 A2998 RMK A01 T02010169  RH  082%=      5-min Rain = 0
KPD2 121313Z 00001KT 20/17 A2998 RMK A01 T02020170  RH  082%=      5-min Rain = 0
KPD2 121314Z 00001KT 20/17 A2998 RMK A01 T02030170  RH  081%=      5-min Rain = 0
KPD2 121315Z 00001KT 21/17 A2998 RMK A01 T02050170  RH  080%=      5-min Rain = 0
KPD2 121316Z 00001KT 21/17 A2998 RMK A01 T02070170  RH  079%=      5-min Rain = 0
KPD2 121317Z 00001KT 21/17 A2998 RMK A01 T02090171  RH  079%=      5-min Rain = 0
KPD2 121318Z 00000KT 21/17 A2998 RMK A01 T02110172  RH  079%=      5-min Rain = 0
KPD2 121319Z 00001KT 21/17 A2998 RMK A01 T02130172  RH  077%=      5-min Rain = 0
KPD2 121320Z 00000KT 21/17 A2998 RMK A01 T02140172  RH  077%=      5-min Rain = 0
KPD2 121321Z 00000KT 22/17 A2998 RMK A01 T02160172  RH  076%=      5-min Rain = 0
KPD2 121322Z 00000KT 22/17 A2998 RMK A01 T02170173  RH  076%=      5-min Rain = 0
KPD2 121323Z 00000KT 22/17 A2998 RMK A01 T02180174  RH  076%=      5-min Rain = 0
KPD2 121324Z 00000KT 22/17 A2998 RMK A01 T02190172  RH  075%=      5-min Rain = 0
KPD2 121325Z 00001KT 22/17 A2998 RMK A01 T02200172  RH  074%=      5-min Rain = 0
KPD2 121326Z 00001KT 22/18 A2998 RMK A01 T02220176  RH  075%=      5-min Rain = 0
KPD2 121327Z 00001KT 22/18 A2998 RMK A01 T02240176  RH  074%=      5-min Rain = 0
KPD2 121328Z 00001KT 23/18 A2998 RMK A01 T02250175  RH  073%=      5-min Rain = 0
KPD2 121329Z 00001KT 23/18 A2998 RMK A01 T02280175  RH  072%=      5-min Rain = 0
KPD2 121330Z 00001KT 23/18 A2998 RMK A01 T02300175  RH  071%=      5-min Rain = 0
KPD2 121331Z 00000KT 23/18 A2998 RMK A01 T02320175  RH  070%=      5-min Rain = 0
KPD2 121332Z 00000KT 23/17 A2998 RMK A01 T02340173  RH  069%=      5-min Rain = 0
KPD2 121333Z 00000KT 24/17 A2998 RMK A01 T02350172  RH  068%=      5-min Rain = 0
KPD2 121334Z 00000KT 24/17 A2998 RMK A01 T02350171  RH  067%=      5-min Rain = 0
KPD2 121335Z 00000KT 24/17 A2998 RMK A01 T02350171  RH  067%=      5-min Rain = 0
KPD2 121336Z 00000KT 24/17 A2998 RMK A01 T02350171  RH  067%=      5-min Rain = 0
KPD2 121337Z 07000KT 24/17 A2998 RMK A01 T02360172  RH  067%=      5-min Rain = 0
KPD2 121338Z 00000KT 24/17 A2998 RMK A01 T02360172  RH  067%=      5-min Rain = 0
KPD2 121339Z 12000KT 24/17 A2998 RMK A01 T02370172  RH  067%=      5-min Rain = 0
KPD2 121340Z 20001KT 24/17 A2998 RMK A01 T02370171  RH  066%=      5-min Rain = 0
KPD2 121341Z 20000KT 24/17 A2998 RMK A01 T02370172  RH  067%=      5-min Rain = 0
KPD2 121342Z 19000KT 24/17 A2998 RMK A01 T02370172  RH  067%=      5-min Rain = 0
KPD2 121343Z 18000KT 24/17 A2998 RMK A01 T02380171  RH  066%=      5-min Rain = 0
KPD2 121344Z 18000KT 24/17 A2998 RMK A01 T02380171  RH  066%=      5-min Rain = 0
KPD2 121345Z 15000KT 24/17 A2998 RMK A01 T02400173  RH  066%=      5-min Rain = 0
KPD2 121346Z 14001KT 24/17 A2998 RMK A01 T02420174  RH  065%=      5-min Rain = 0
KPD2 121347Z 14000KT 24/18 A2998 RMK A01 T02430175  RH  065%=      5-min Rain = 0
KPD2 121348Z 11002KT 24/17 A2998 RMK A01 T02440174  RH  065%=      5-min Rain = 0
KPD2 121349Z 12002KT 25/17 A2998 RMK A01 T02450174  RH  064%=      5-min Rain = 0
KPD2 121350Z 12001KT 25/17 A2998 RMK A01 T02460174  RH  064%=      5-min Rain = 0
KPD2 121351Z 15000KT 25/17 A2998 RMK A01 T02470172  RH  063%=      5-min Rain = 0
KPD2 121352Z 17000KT 25/17 A2998 RMK A01 T02460173  RH  064%=      5-min Rain = 0
KPD2 121353Z 00000KT 25/17 A2998 RMK A01 T02450172  RH  064%=      5-min Rain = 0
KPD2 121354Z 00000KT 24/17 A2998 RMK A01 T02440172  RH  064%=      5-min Rain = 0
KPD2 121355Z 12001KT 24/17 A2998 RMK A01 T02440172  RH  064%=      5-min Rain = 0
KPD2 121356Z 14001KT 24/17 A2998 RMK A01 T02440172  RH  064%=      5-min Rain = 0
KPD2 121357Z 14000KT 25/17 A2998 RMK A01 T02450172  RH  064%=      5-min Rain = 0
KPD2 121358Z 16000KT 25/17 A2998 RMK A01 T02450172  RH  064%=      5-min Rain = 0
KPD2 121359Z 11000KT 25/17 A2998 RMK A01 T02450172  RH  064%=      5-min Rain = 0
KPD2 121400Z 13001KT 25/17 A2998 RMK A01 T02460172  RH  064%=      5-min Rain = 0
KPD2 121401Z 13002KT 25/17 A2998 RMK A01 T02470173  RH  064%=      5-min Rain = 0
KPD2 121402Z 13001KT 25/17 A2998 RMK A01 T02480173  RH  063%=      5-min Rain = 0
KPD2 121403Z 14002KT 25/17 A2998 RMK A01 T02490173  RH  063%=      5-min Rain = 0
KPD2 121404Z 15003KT 25/17 A2998 RMK A01 T02500173  RH  062%=      5-min Rain = 0
KPD2 121405Z 14002KT 25/17 A2998 RMK A01 T02510174  RH  062%=      5-min Rain = 0
KPD2 121406Z 13002KT 25/18 A2998 RMK A01 T02520175  RH  062%=      5-min Rain = 0
KPD2 121407Z 12002KT 25/18 A2998 RMK A01 T02530175  RH  062%=      5-min Rain = 0
KPD2 121408Z 13002KT 26/18 A2998 RMK A01 T02550176  RH  061%=      5-min Rain = 0
KPD2 121409Z 13002KT 26/18 A2998 RMK A01 T02560175  RH  061%=      5-min Rain = 0
KPD2 121410Z 11003KT 26/18 A2998 RMK A01 T02570175  RH  060%=      5-min Rain = 0
KPD2 121411Z 11002KT 26/17 A2998 RMK A01 T02570173  RH  060%=      5-min Rain = 0
KPD2 121412Z 11002KT 26/17 A2998 RMK A01 T02590174  RH  059%=      5-min Rain = 0
KPD2 121413Z 12002KT 26/18 A2998 RMK A01 T02600175  RH  059%=      5-min Rain = 0
KPD2 121414Z 12001KT 26/17 A2998 RMK A01 T02610174  RH  059%=      5-min Rain = 0
KPD2 121415Z 12000KT 26/18 A2998 RMK A01 T02630176  RH  059%=      5-min Rain = 0
KPD2 121416Z 13000KT 27/17 A2998 RMK A01 T02650174  RH  057%=      5-min Rain = 0
KPD2 121417Z 15001KT 27/17 A2998 RMK A01 T02660174  RH  057%=      5-min Rain = 0
KPD2 121418Z 18001KT 27/17 A2998 RMK A01 T02660173  RH  057%=      5-min Rain = 0
KPD2 121419Z 18001KT 27/17 A2998 RMK A01 T02670173  RH  056%=      5-min Rain = 0
KPD2 121420Z 00000KT 27/17 A2998 RMK A01 T02680174  RH  056%=      5-min Rain = 0
KPD2 121421Z 00000KT 27/18 A2997 RMK A01 T02680175  RH  057%=      5-min Rain = 0
KPD2 121422Z 28000KT 27/17 A2998 RMK A01 T02680168  RH  054%=      5-min Rain = 0
KPD2 121423Z 28001KT 27/16 A2998 RMK A01 T02680163  RH  052%=      5-min Rain = 0
KPD2 121424Z 26000KT 27/16 A2998 RMK A01 T02670164  RH  053%=      5-min Rain = 0
KPD2 121425Z 24000KT 27/17 A2998 RMK A01 T02680165  RH  053%=      5-min Rain = 0
KPD2 121426Z 17000KT 27/17 A2998 RMK A01 T02700166  RH  053%=      5-min Rain = 0
KPD2 121427Z 17001KT 27/17 A2998 RMK A01 T02710167  RH  053%=      5-min Rain = 0
KPD2 121428Z 12001KT 27/17 A2998 RMK A01 T02720167  RH  053%=      5-min Rain = 0
KPD2 121429Z 16001KT 27/17 A2998 RMK A01 T02740169  RH  053%=      5-min Rain = 0
KPD2 121430Z 18001KT 27/17 A2998 RMK A01 T02740166  RH  052%=      5-min Rain = 0
KPD2 121431Z 20000KT 28/17 A2997 RMK A01 T02750167  RH  052%=      5-min Rain = 0
KPD2 121432Z 13000KT 28/17 A2997 RMK A01 T02750166  RH  051%=      5-min Rain = 0
KPD2 121433Z 09001KT 28/17 A2997 RMK A01 T02770169  RH  052%=      5-min Rain = 0
KPD2 121434Z 10001KT 28/17 A2997 RMK A01 T02800167  RH  050%=      5-min Rain = 0
KPD2 121435Z 09001KT 28/17 A2997 RMK A01 T02820169  RH  050%=      5-min Rain = 0
KPD2 121436Z 08001KT 28/17 A2997 RMK A01 T02840167  RH  049%=      5-min Rain = 0
KPD2 121437Z 07001KT 29/17 A2997 RMK A01 T02860168  RH  049%=      5-min Rain = 0
KPD2 121438Z 00000KT 29/17 A2997 RMK A01 T02880167  RH  048%=      5-min Rain = 0
KPD2 121439Z 10001KT 29/17 A2997 RMK A01 T02900169  RH  048%=      5-min Rain = 0
KPD2 121440Z 09002KT 29/17 A2997 RMK A01 T02930168  RH  047%=      5-min Rain = 0
KPD2 121441Z 08001KT 29/17 A2997 RMK A01 T02940166  RH  046%=      5-min Rain = 0
KPD2 121442Z 08002KT 30/17 A2997 RMK A01 T02960166  RH  046%=      5-min Rain = 0
KPD2 121443Z 17001KT 30/17 A2997 RMK A01 T02960167  RH  046%=      5-min Rain = 0
KPD2 121444Z 16002KT 30/17 A2997 RMK A01 T02970168  RH  046%=      5-min Rain = 0
KPD2 121445Z 14002KT 30/17 A2997 RMK A01 T02960167  RH  046%=      5-min Rain = 0
KPD2 121446Z 13001KT 30/17 A2997 RMK A01 T02950166  RH  046%=      5-min Rain = 0
KPD2 121447Z 14001KT 30/17 A2997 RMK A01 T02950168  RH  046%=      5-min Rain = 0
KPD2 121448Z 14002KT 30/17 A2997 RMK A01 T02950167  RH  046%=      5-min Rain = 0
KPD2 121449Z 13002KT 30/17 A2997 RMK A01 T02950167  RH  046%=      5-min Rain = 0
KPD2 121450Z 11002KT 30/17 A2997 RMK A01 T02950169  RH  047%=      5-min Rain = 0
KPD2 121451Z 12002KT 30/17 A2997 RMK A01 T02970169  RH  046%=      5-min Rain = 0
KPD2 121452Z 12000KT 30/17 A2997 RMK A01 T02970166  RH  045%=      5-min Rain = 0
KPD2 121453Z 16002KT 30/17 A2997 RMK A01 T02980167  RH  045%=      5-min Rain = 0
KPD2 121454Z 14002KT 30/17 A2997 RMK A01 T02960165  RH  045%=      5-min Rain = 0
KPD2 121455Z 27002KT 30/17 A2997 RMK A01 T02960166  RH  045%=      5-min Rain = 0
KPD2 121456Z 20003KT 30/17 A2997 RMK A01 T02970167  RH  045%=      5-min Rain = 0
KPD2 121457Z 18003KT 30/17 A2997 RMK A01 T02980167  RH  045%=      5-min Rain = 0
KPD2 121458Z 12004KT 30/17 A2997 RMK A01 T02980168  RH  045%=      5-min Rain = 0
KPD2 121459Z 11002KT 30/17 A2997 RMK A01 T03000169  RH  045%=      5-min Rain = 0
KPD2 121500Z 10002KT 30/17 A2997 RMK A01 T03020166  RH  044%=      5-min Rain = 0
KPD2 121501Z 08003KT 30/17 A2997 RMK A01 T03030170  RH  045%=      5-min Rain = 0
KPD2 121502Z 01003KT 31/17 A2997 RMK A01 T03060174  RH  045%=      5-min Rain = 0
KPD2 121503Z 26004KT 31/17 A2997 RMK A01 T03090168  RH  043%=      5-min Rain = 0
KPD2 121504Z 29004KT 31/17 A2997 RMK A01 T03090166  RH  042%=      5-min Rain = 0
KPD2 121505Z 27004G9KT 31/16 A2997 RMK A01 T03100163  RH  041%=      5-min Rain = 0
KPD2 121506Z 25007KT 31/16 A2997 RMK A01 T03120162  RH  041%=      5-min Rain = 0
KPD2 121507Z 26005KT 31/16 A2997 RMK A01 T03140164  RH  040%=      5-min Rain = 0
KPD2 121508Z 26003KT 32/17 A2997 RMK A01 T03170166  RH  040%=      5-min Rain = 0
KPD2 121509Z 23006KT 32/17 A2997 RMK A01 T03200165  RH  039%=      5-min Rain = 0
KPD2 121510Z 24005KT 32/16 A2997 RMK A01 T03210163  RH  039%=      5-min Rain = 0
KPD2 121511Z 25007KT 32/17 A2997 RMK A01 T03240166  RH  039%=      5-min Rain = 0
KPD2 121512Z 23004KT 33/16 A2996 RMK A01 T03250163  RH  038%=      5-min Rain = 0
KPD2 121513Z 27001KT 33/16 A2996 RMK A01 T03260164  RH  038%=      5-min Rain = 0
KPD2 121514Z 25004KT 33/17 A2996 RMK A01 T03280167  RH  038%=      5-min Rain = 0
KPD2 121515Z 28006KT 33/16 A2996 RMK A01 T03300164  RH  037%=      5-min Rain = 0
KPD2 121516Z 28004KT 33/16 A2996 RMK A01 T03290164  RH  037%=      5-min Rain = 0
KPD2 121517Z 26008G14KT 33/16 A2996 RMK A01 T03290164  RH  037%=      5-min Rain = 0
KPD2 121518Z 26011KT 33/16 A2996 RMK A01 T03290164  RH  037%=      5-min Rain = 0
KPD2 121519Z 25009G14KT 33/16 A2996 RMK A01 T03280161  RH  037%=      5-min Rain = 0
KPD2 121520Z 23004KT 33/16 A2996 RMK A01 T03270163  RH  037%=      5-min Rain = 0
KPD2 121521Z 27003KT 33/16 A2996 RMK A01 T03290164  RH  037%=      5-min Rain = 0
KPD2 121522Z 25006G11KT 33/17 A2996 RMK A01 T03300165  RH  037%=      5-min Rain = 0
KPD2 121523Z 24010KT 33/16 A2996 RMK A01 T03310163  RH  036%=      5-min Rain = 0
KPD2 121524Z 23007KT 33/16 A2996 RMK A01 T03310162  RH  036%=      5-min Rain = 0
KPD2 121525Z 23005KT 33/16 A2996 RMK A01 T03310161  RH  036%=      5-min Rain = 0
KPD2 121526Z 26007KT 33/16 A2996 RMK A01 T03300162  RH  037%=      5-min Rain = 0
KPD2 121527Z 25005KT 33/16 A2996 RMK A01 T03300164  RH  037%=      5-min Rain = 0
KPD2 121528Z 27005KT 33/17 A2996 RMK A01 T03320165  RH  037%=      5-min Rain = 0
KPD2 121529Z 27008KT 33/16 A2996 RMK A01 T03330164  RH  036%=      5-min Rain = 0
KPD2 121530Z 30004KT 33/16 A2996 RMK A01 T03330164  RH  036%=      5-min Rain = 0
KPD2 121531Z 25003KT 33/16 A2996 RMK A01 T03330164  RH  036%=      5-min Rain = 0
KPD2 121532Z 28004KT 34/17 A2996 RMK A01 T03350166  RH  037%=      5-min Rain = 0
KPD2 121533Z 24004KT 34/16 A2996 RMK A01 T03360164  RH  036%=      5-min Rain = 0
KPD2 121534Z 24003KT 34/17 A2996 RMK A01 T03370166  RH  036%=      5-min Rain = 0
KPD2 121535Z 22005KT 34/17 A2996 RMK A01 T03390166  RH  036%=      5-min Rain = 0
KPD2 121536Z 22006KT 34/16 A2996 RMK A01 T03400162  RH  035%=      5-min Rain = 0
KPD2 121537Z 22005KT 34/16 A2996 RMK A01 T03400164  RH  035%=      5-min Rain = 0
KPD2 121538Z 21004KT 34/17 A2996 RMK A01 T03400165  RH  035%=      5-min Rain = 0
KPD2 121539Z 20005KT 34/16 A2996 RMK A01 T03410162  RH  034%=      5-min Rain = 0
KPD2 121540Z 18007G13KT 34/16 A2996 RMK A01 T03390161  RH  035%=      5-min Rain = 0
KPD2 121541Z 20008G13KT 34/16 A2996 RMK A01 T03390163  RH  035%=      5-min Rain = 0
KPD2 121542Z 22006KT 34/16 A2996 RMK A01 T03380160  RH  034%=      5-min Rain = 0
KPD2 121543Z 23006KT 34/16 A2996 RMK A01 T03370163  RH  035%=      5-min Rain = 0
KPD2 121544Z 24004KT 34/17 A2996 RMK A01 T03380165  RH  036%=      5-min Rain = 0
KPD2 121545Z 23003G8KT 34/16 A2996 RMK A01 T03390163  RH  035%=      5-min Rain = 0
KPD2 121546Z 25004KT 34/16 A2996 RMK A01 T03400164  RH  035%=      5-min Rain = 0
KPD2 121547Z 27004KT 34/17 A2996 RMK A01 T03410165  RH  035%=      5-min Rain = 0
KPD2 121548Z 26006KT 34/16 A2996 RMK A01 T03410164  RH  035%=      5-min Rain = 0
KPD2 121549Z 24005KT 34/16 A2996 RMK A01 T03420163  RH  034%=      5-min Rain = 0
KPD2 121550Z 23006KT 34/16 A2996 RMK A01 T03420163  RH  034%=      5-min Rain = 0
KPD2 121551Z 25004KT 34/16 A2996 RMK A01 T03420162  RH  034%=      5-min Rain = 0
KPD2 121552Z 24004KT 34/16 A2996 RMK A01 T03410163  RH  035%=      5-min Rain = 0
KPD2 121553Z 23005G12KT 34/16 A2996 RMK A01 T03420162  RH  034%=      5-min Rain = 0
KPD2 121554Z 24010KT 34/16 A2996 RMK A01 T03420162  RH  034%=      5-min Rain = 0
KPD2 121555Z 25007KT 34/16 A2996 RMK A01 T03420162  RH  034%=      5-min Rain = 0
KPD2 121556Z 24004KT 34/16 A2996 RMK A01 T03420163  RH  034%=      5-min Rain = 0
KPD2 121557Z 26005KT 34/16 A2996 RMK A01 T03430162  RH  034%=      5-min Rain = 0
KPD2 121558Z 19003KT 34/16 A2996 RMK A01 T03430162  RH  034%=      5-min Rain = 0
KPD2 121559Z 19004KT 34/16 A2996 RMK A01 T03440161  RH  033%=      5-min Rain = 0
KPD2 121600Z 18003KT 34/16 A2996 RMK A01 T03430161  RH  034%=      5-min Rain = 0
KPD2 121601Z 24002KT 34/16 A2996 RMK A01 T03430161  RH  034%=      5-min Rain = 0
KPD2 121602Z 29002KT 35/17 A2996 RMK A01 T03450165  RH  034%=      5-min Rain = 0
KPD2 121603Z 24003KT 35/17 A2996 RMK A01 T03480167  RH  034%=      5-min Rain = 0
KPD2 121604Z 24008KT 35/17 A2996 RMK A01 T03510167  RH  034%=      5-min Rain = 0
KPD2 121605Z 27006KT 35/17 A2996 RMK A01 T03520165  RH  033%=      5-min Rain = 0
KPD2 121606Z 26005KT 35/17 A2996 RMK A01 T03520165  RH  033%=      5-min Rain = 0
KPD2 121607Z 25007KT 35/16 A2996 RMK A01 T03520162  RH  032%=      5-min Rain = 0
KPD2 121608Z 25006KT 35/16 A2996 RMK A01 T03510163  RH  033%=      5-min Rain = 0
KPD2 121609Z 27005KT 35/16 A2996 RMK A01 T03510164  RH  033%=      5-min Rain = 0
KPD2 121610Z 25005KT 35/16 A2996 RMK A01 T03520163  RH  032%=      5-min Rain = 0
KPD2 121611Z 25006KT 35/16 A2996 RMK A01 T03540162  RH  032%=      5-min Rain = 0
KPD2 121612Z 24004KT 35/16 A2996 RMK A01 T03540161  RH  032%=      5-min Rain = 0
KPD2 121613Z 26005KT 36/16 A2996 RMK A01 T03550164  RH  032%=      5-min Rain = 0
KPD2 121614Z 26007KT 36/16 A2996 RMK A01 T03560163  RH  032%=      5-min Rain = 0
KPD2 121615Z 26005KT 36/16 A2996 RMK A01 T03560162  RH  032%=      5-min Rain = 0
KPD2 121616Z 24002KT 36/16 A2996 RMK A01 T03560160  RH  031%=      5-min Rain = 0
KPD2 121617Z 27004KT 36/16 A2996 RMK A01 T03560163  RH  032%=      5-min Rain = 0
KPD2 121618Z 27004KT 36/16 A2996 RMK A01 T03580164  RH  032%=      5-min Rain = 0
KPD2 121619Z 25007KT 36/16 A2996 RMK A01 T03590163  RH  031%=      5-min Rain = 0
KPD2 121620Z 25005KT 36/16 A2996 RMK A01 T03580161  RH  031%=      5-min Rain = 0
KPD2 121621Z 26005KT 36/16 A2996 RMK A01 T03570160  RH  031%=      5-min Rain = 0
KPD2 121622Z 26007G12KT 36/16 A2996 RMK A01 T03560161  RH  031%=      5-min Rain = 0
KPD2 121623Z 29006KT 36/16 A2996 RMK A01 T03560162  RH  032%=      5-min Rain = 0
KPD2 121624Z 30005KT 36/16 A2995 RMK A01 T03570164  RH  032%=      5-min Rain = 0
KPD2 121625Z 26007KT 36/16 A2995 RMK A01 T03580160  RH  031%=      5-min Rain = 0
KPD2 121626Z 26006KT 36/16 A2995 RMK A01 T03560161  RH  031%=      5-min Rain = 0
KPD2 121627Z 28005KT 36/16 A2995 RMK A01 T03570164  RH  032%=      5-min Rain = 0
KPD2 121628Z 29005KT 36/16 A2995 RMK A01 T03580163  RH  031%=      5-min Rain = 0
KPD2 121629Z 27006KT 36/16 A2995 RMK A01 T03580163  RH  032%=      5-min Rain = 0
KPD2 121630Z 26007KT 36/16 A2995 RMK A01 T03580161  RH  031%=      5-min Rain = 0
KPD2 121631Z 24006KT 36/16 A2995 RMK A01 T03580164  RH  032%=      5-min Rain = 0
KPD2 121632Z 23005KT 36/16 A2995 RMK A01 T03590161  RH  031%=      5-min Rain = 0
KPD2 121633Z 23001KT 36/16 A2995 RMK A01 T03590158  RH  030%=      5-min Rain = 0
KPD2 121634Z 23003KT 36/16 A2995 RMK A01 T03580160  RH  031%=      5-min Rain = 0
KPD2 121635Z 24006KT 36/16 A2995 RMK A01 T03590163  RH  031%=      5-min Rain = 0
KPD2 121636Z 22004KT 36/16 A2995 RMK A01 T03620162  RH  031%=      5-min Rain = 0
KPD2 121637Z 26004KT 36/16 A2995 RMK A01 T03640162  RH  030%=      5-min Rain = 0
KPD2 121638Z 28005KT 37/16 A2995 RMK A01 T03650162  RH  030%=      5-min Rain = 0
KPD2 121639Z 26006KT 37/16 A2995 RMK A01 T03660160  RH  030%=      5-min Rain = 0
KPD2 121640Z 27003KT 37/16 A2995 RMK A01 T03650158  RH  029%=      5-min Rain = 0
KPD2 121641Z 28003KT 36/16 A2995 RMK A01 T03640161  RH  030%=      5-min Rain = 0
KPD2 121642Z 26004KT 36/16 A2995 RMK A01 T03640162  RH  030%=      5-min Rain = 0
KPD2 121643Z 20004KT 37/16 A2995 RMK A01 T03660161  RH  030%=      5-min Rain = 0
KPD2 121644Z 18006KT 37/16 A2995 RMK A01 T03670157  RH  029%=      5-min Rain = 0
KPD2 121645Z 18004KT 37/15 A2995 RMK A01 T03660154  RH  029%=      5-min Rain = 0
KPD2 121646Z 19004KT 36/15 A2995 RMK A01 T03640154  RH  029%=      5-min Rain = 0
KPD2 121647Z 19003KT 36/16 A2995 RMK A01 T03640156  RH  029%=      5-min Rain = 0
KPD2 121648Z 17006KT 37/16 A2995 RMK A01 T03660156  RH  029%=      5-min Rain = 0
KPD2 121649Z 18006KT 37/16 A2995 RMK A01 T03660155  RH  029%=      5-min Rain = 0
KPD2 121650Z 20007KT 37/15 A2995 RMK A01 T03660154  RH  029%=      5-min Rain = 0
KPD2 121651Z 21006KT 37/15 A2995 RMK A01 T03660153  RH  028%=      5-min Rain = 0
KPD2 121652Z 21005KT 37/16 A2995 RMK A01 T03670156  RH  029%=      5-min Rain = 0
KPD2 121653Z 24004KT 37/16 A2995 RMK A01 T03680155  RH  028%=      5-min Rain = 0
KPD2 121654Z 20002KT 37/16 A2995 RMK A01 T03680157  RH  029%=      5-min Rain = 0
KPD2 121655Z 19000KT 37/15 A2995 RMK A01 T03680153  RH  028%=      5-min Rain = 0
KPD2 121656Z 06001KT 37/16 A2995 RMK A01 T03690157  RH  029%=      5-min Rain = 0
KPD2 121657Z 32002KT 37/16 A2995 RMK A01 T03700158  RH  028%=      5-min Rain = 0
KPD2 121658Z 29002KT 37/16 A2995 RMK A01 T03720159  RH  028%=      5-min Rain = 0
KPD2 121659Z 27003KT 37/16 A2995 RMK A01 T03740160  RH  028%=      5-min Rain = 0
KPD2 121700Z 21004KT 37/16 A2995 RMK A01 T03740157  RH  028%=      5-min Rain = 0
KPD2 121701Z 24004KT 37/15 A2995 RMK A01 T03740153  RH  027%=      5-min Rain = 0
KPD2 121702Z 28005KT 37/16 A2995 RMK A01 T03730160  RH  028%=      5-min Rain = 0
KPD2 121703Z 28006KT 37/16 A2995 RMK A01 T03740159  RH  028%=      5-min Rain = 0
KPD2 121704Z 30002KT 37/16 A2995 RMK A01 T03740159  RH  028%=      5-min Rain = 0
KPD2 121705Z 30004KT 37/16 A2995 RMK A01 T03740160  RH  028%=      5-min Rain = 0
KPD2 121706Z 28002KT 37/16 A2995 RMK A01 T03740158  RH  028%=      5-min Rain = 0
KPD2 121707Z 32003KT 37/16 A2995 RMK A01 T03730160  RH  029%=      5-min Rain = 0
KPD2 121708Z 32004KT 38/16 A2995 RMK A01 T03750162  RH  029%=      5-min Rain = 0
KPD2 121709Z 30004KT 38/16 A2995 RMK A01 T03770162  RH  028%=      5-min Rain = 0
KPD2 121710Z 22001KT 38/16 A2995 RMK A01 T03770157  RH  027%=      5-min Rain = 0
KPD2 121711Z 16005G11KT 38/16 A2995 RMK A01 T03760155  RH  027%=      5-min Rain = 0
KPD2 121712Z 17008KT 38/15 A2995 RMK A01 T03750151  RH  027%=      5-min Rain = 0
KPD2 121713Z 20007KT 38/15 A2995 RMK A01 T03750149  RH  026%=      5-min Rain = 0
KPD2 121714Z 20007KT 37/15 A2995 RMK A01 T03730149  RH  026%=      5-min Rain = 0
KPD2 121715Z 19005G10KT 37/15 A2995 RMK A01 T03720149  RH  027%=      5-min Rain = 0
KPD2 121716Z 21005KT 37/15 A2995 RMK A01 T03710149  RH  027%=      5-min Rain = 0
KPD2 121717Z 21004KT 37/15 A2995 RMK A01 T03740152  RH  027%=      5-min Rain = 0
KPD2 121718Z 21004KT 38/15 A2995 RMK A01 T03750148  RH  026%=      5-min Rain = 0
KPD2 121719Z 21006KT 38/15 A2995 RMK A01 T03750146  RH  026%=      5-min Rain = 0
KPD2 121720Z 20004KT 38/15 A2994 RMK A01 T03750147  RH  026%=      5-min Rain = 0
KPD2 121721Z 22002KT 37/14 A2994 RMK A01 T03730143  RH  026%=      5-min Rain = 0
KPD2 121722Z 21004KT 37/15 A2994 RMK A01 T03720146  RH  026%=      5-min Rain = 0
KPD2 121723Z 21003KT 37/15 A2994 RMK A01 T03720145  RH  026%=      5-min Rain = 0
KPD2 121724Z 12002KT 37/15 A2994 RMK A01 T03720145  RH  026%=      5-min Rain = 0
KPD2 121725Z 14003KT 37/15 A2994 RMK A01 T03740147  RH  026%=      5-min Rain = 0
KPD2 121726Z 18002KT 38/15 A2994 RMK A01 T03770146  RH  026%=      5-min Rain = 0
KPD2 121727Z 20006KT 38/15 A2994 RMK A01 T03770148  RH  026%=      5-min Rain = 0
KPD2 121728Z 18004KT 38/15 A2994 RMK A01 T03770149  RH  026%=      5-min Rain = 0
KPD2 121729Z 15008G13KT 38/15 A2994 RMK A01 T03780147  RH  026%=      5-min Rain = 0
KPD2 121730Z 12008KT 38/15 A2994 RMK A01 T03770150  RH  026%=      5-min Rain = 0
KPD2 121731Z 13008KT 38/15 A2994 RMK A01 T03800152  RH  026%=      5-min Rain = 0
KPD2 121732Z 12005KT 38/15 A2994 RMK A01 T03840150  RH  025%=      5-min Rain = 0
KPD2 121733Z 13004KT 39/15 A2994 RMK A01 T03860151  RH  025%=      5-min Rain = 0
KPD2 121734Z 15006KT 39/15 A2994 RMK A01 T03880151  RH  025%=      5-min Rain = 0
KPD2 121735Z 15006KT 39/15 A2994 RMK A01 T03850150  RH  025%=      5-min Rain = 0
KPD2 121736Z 12005KT 38/15 A2994 RMK A01 T03810152  RH  026%=      5-min Rain = 0
KPD2 121737Z 13004KT 38/15 A2994 RMK A01 T03800153  RH  026%=      5-min Rain = 0
KPD2 121738Z 18002KT 38/15 A2994 RMK A01 T03820151  RH  026%=      5-min Rain = 0
KPD2 121739Z 20004KT 38/15 A2994 RMK A01 T03820151  RH  026%=      5-min Rain = 0
KPD2 121740Z 15008G13KT 38/15 A2994 RMK A01 T03820153  RH  026%=      5-min Rain = 0
KPD2 121741Z 15009KT 38/15 A2994 RMK A01 T03840150  RH  025%=      5-min Rain = 0
KPD2 121742Z 15008KT 38/15 A2994 RMK A01 T03840150  RH  025%=      5-min Rain = 0
KPD2 121743Z 14007KT 38/15 A2994 RMK A01 T03830150  RH  025%=      5-min Rain = 0
KPD2 121744Z 14008KT 38/15 A2994 RMK A01 T03820150  RH  025%=      5-min Rain = 0
KPD2 121745Z 14008KT 38/15 A2994 RMK A01 T03810151  RH  026%=      5-min Rain = 0
KPD2 121746Z 14006KT 38/15 A2994 RMK A01 T03820149  RH  025%=      5-min Rain = 0
KPD2 121747Z 12004KT 38/15 A2994 RMK A01 T03830151  RH  025%=      5-min Rain = 0
KPD2 121748Z 14004KT 39/15 A2994 RMK A01 T03850149  RH  025%=      5-min Rain = 0
KPD2 121749Z 16010KT 39/15 A2994 RMK A01 T03860149  RH  025%=      5-min Rain = 0
KPD2 121750Z 16006KT 39/15 A2994 RMK A01 T03850149  RH  025%=      5-min Rain = 0
KPD2 121751Z 17005KT 38/15 A2994 RMK A01 T03820150  RH  025%=      5-min Rain = 0
KPD2 121752Z 16003KT 38/15 A2994 RMK A01 T03800148  RH  025%=      5-min Rain = 0
KPD2 121753Z 15004KT 38/15 A2994 RMK A01 T03780148  RH  026%=      5-min Rain = 0
KPD2 121754Z 15005G10KT 38/15 A2994 RMK A01 T03790149  RH  026%=      5-min Rain = 0
KPD2 121755Z 14004KT 38/15 A2994 RMK A01 T03800149  RH  026%=      5-min Rain = 0
KPD2 121756Z 13007KT 38/15 A2994 RMK A01 T03800150  RH  026%=      5-min Rain = 0
KPD2 121757Z 14008KT 38/15 A2994 RMK A01 T03820150  RH  025%=      5-min Rain = 0
KPD2 121758Z 15007KT 38/15 A2994 RMK A01 T03820151  RH  026%=      5-min Rain = 0
KPD2 121759Z 16005KT 38/15 A2994 RMK A01 T03810150  RH  026%=      5-min Rain = 0
KPD2 121800Z 17009G14KT 38/15 A2994 RMK A01 T03800152  RH  026%=      5-min Rain = 0
KPD2 121801Z 16008KT 38/15 A2994 RMK A01 T03820151  RH  026%=      5-min Rain = 0
KPD2 121802Z 18007KT 38/15 A2994 RMK A01 T03840152  RH  026%=      5-min Rain = 0
KPD2 121803Z 16006KT 39/15 A2994 RMK A01 T03860152  RH  025%=      5-min Rain = 0
KPD2 121804Z 17004KT 39/15 A2994 RMK A01 T03850151  RH  025%=      5-min Rain = 0
KPD2 121805Z 18006KT 38/15 A2994 RMK A01 T03830151  RH  025%=      5-min Rain = 0
KPD2 121806Z 18003KT 38/15 A2994 RMK A01 T03780149  RH  026%=      5-min Rain = 0
KPD2 121807Z 21003KT 38/15 A2994 RMK A01 T03770150  RH  026%=      5-min Rain = 0
KPD2 121808Z 20005KT 38/15 A2994 RMK A01 T03790150  RH  026%=      5-min Rain = 0
KPD2 121809Z 20006KT 38/15 A2994 RMK A01 T03810147  RH  025%=      5-min Rain = 0
KPD2 121810Z 23004KT 38/15 A2993 RMK A01 T03810150  RH  026%=      5-min Rain = 0
KPD2 121811Z 23004KT 38/15 A2993 RMK A01 T03840154  RH  026%=      5-min Rain = 0
KPD2 121812Z 18001KT 39/15 A2993 RMK A01 T03850150  RH  025%=      5-min Rain = 0
KPD2 121813Z 18003KT 39/15 A2993 RMK A01 T03860151  RH  025%=      5-min Rain = 0
KPD2 121814Z 16005KT 39/15 A2993 RMK A01 T03870152  RH  025%=      5-min Rain = 0
KPD2 121815Z 16005G10KT 39/15 A2993 RMK A01 T03880150  RH  025%=      5-min Rain = 0
KPD2 121816Z 19011G16KT 39/15 A2993 RMK A01 T03860151  RH  025%=      5-min Rain = 0
KPD2 121817Z 20008KT 39/15 A2993 RMK A01 T03850151  RH  025%=      5-min Rain = 0
KPD2 121818Z 23007KT 38/15 A2993 RMK A01 T03830149  RH  025%=      5-min Rain = 0
KPD2 121819Z 24006KT 38/15 A2993 RMK A01 T03820153  RH  026%=      5-min Rain = 0
KPD2 121820Z 20009KT 39/15 A2993 RMK A01 T03850154  RH  026%=      5-min Rain = 0
KPD2 121821Z 15003KT 39/15 A2993 RMK A01 T03850151  RH  025%=      5-min Rain = 0
KPD2 121822Z 17005KT 38/15 A2993 RMK A01 T03820152  RH  026%=      5-min Rain = 0
KPD2 121823Z 15002KT 38/15 A2993 RMK A01 T03810150  RH  026%=      5-min Rain = 0
KPD2 121824Z 20003KT 38/15 A2992 RMK A01 T03790151  RH  026%=      5-min Rain = 0
KPD2 121825Z 11004KT 38/15 A2993 RMK A01 T03790153  RH  026%=      5-min Rain = 0
KPD2 121826Z 18004KT 38/15 A2993 RMK A01 T03830152  RH  026%=      5-min Rain = 0
KPD2 121827Z 18003KT 38/15 A2993 RMK A01 T03840152  RH  025%=      5-min Rain = 0
KPD2 121828Z 16003G8KT 38/15 A2993 RMK A01 T03840153  RH  026%=      5-min Rain = 0
KPD2 121829Z 17010KT 39/15 A2992 RMK A01 T03850153  RH  026%=      5-min Rain = 0
KPD2 121830Z 19004KT 39/15 A2992 RMK A01 T03880154  RH  025%=      5-min Rain = 0
KPD2 121831Z 13005KT 39/15 A2992 RMK A01 T03890154  RH  025%=      5-min Rain = 0
KPD2 121832Z 13006KT 39/15 A2992 RMK A01 T03920154  RH  025%=      5-min Rain = 0
KPD2 121833Z 14008KT 40/15 A2992 RMK A01 T03960153  RH  024%=      5-min Rain = 0
KPD2 121834Z 15012G17KT 40/15 A2992 RMK A01 T03960153  RH  024%=      5-min Rain = 0
KPD2 121835Z 15012KT 39/15 A2992 RMK A01 T03910148  RH  024%=      5-min Rain = 0
KPD2 121836Z 15008KT 39/15 A2993 RMK A01 T03890148  RH  024%=      5-min Rain = 0
KPD2 121837Z 16007KT 39/15 A2992 RMK A01 T03880149  RH  024%=      5-min Rain = 0
KPD2 121838Z 14010G15KT 39/15 A2992 RMK A01 T03900149  RH  024%=      5-min Rain = 0
KPD2 121839Z 16009KT 39/15 A2992 RMK A01 T03910148  RH  024%=      5-min Rain = 0
KPD2 121840Z 17009KT 39/15 A2992 RMK A01 T03920148  RH  024%=      5-min Rain = 0
KPD2 121841Z 18007KT 39/15 A2992 RMK A01 T03900148  RH  024%=      5-min Rain = 0
KPD2 121842Z 18006KT 39/15 A2992 RMK A01 T03880149  RH  024%=      5-min Rain = 0
KPD2 121843Z 19005KT 39/15 A2992 RMK A01 T03870149  RH  025%=      5-min Rain = 0
KPD2 121844Z 16004KT 39/15 A2992 RMK A01 T03860149  RH  025%=      5-min Rain = 0
KPD2 121845Z 17004KT 39/15 A2992 RMK A01 T03860148  RH  024%=      5-min Rain = 0
KPD2 121846Z 19005KT 39/15 A2992 RMK A01 T03860149  RH  025%=      5-min Rain = 0
KPD2 121847Z 19006KT 39/15 A2992 RMK A01 T03860153  RH  025%=      5-min Rain = 0
KPD2 121848Z 18009KT 39/15 A2992 RMK A01 T03880152  RH  025%=      5-min Rain = 0
KPD2 121849Z 19006KT 39/15 A2992 RMK A01 T03870150  RH  025%=      5-min Rain = 0
KPD2 121850Z 15004KT 39/15 A2992 RMK A01 T03850149  RH  025%=      5-min Rain = 0
KPD2 121851Z 15004KT 38/15 A2992 RMK A01 T03840151  RH  025%=      5-min Rain = 0
KPD2 121852Z 14006G12KT 39/15 A2992 RMK A01 T03850153  RH  025%=      5-min Rain = 0
KPD2 121853Z 13009KT 39/15 A2992 RMK A01 T03890151  RH  025%=      5-min Rain = 0
KPD2 121854Z 11012KT 39/15 A2992 RMK A01 T03930153  RH  024%=      5-min Rain = 0
KPD2 121855Z 12008KT 40/15 A2992 RMK A01 T03980153  RH  024%=      5-min Rain = 0
KPD2 121856Z 11004G9KT 40/15 A2992 RMK A01 T04010151  RH  023%=      5-min Rain = 0
KPD2 121857Z 17003KT 40/15 A2992 RMK A01 T04010151  RH  023%=      5-min Rain = 0
KPD2 121858Z 20008G13KT 40/15 A2992 RMK A01 T04020152  RH  023%=      5-min Rain = 0
KPD2 121859Z 21005G11KT 40/15 A2992 RMK A01 T03990149  RH  023%=      5-min Rain = 0
KPD2 121900Z 18010KT 40/15 A2992 RMK A01 T03960151  RH  024%=      5-min Rain = 0
KPD2 121901Z 18006G11KT 40/15 A2992 RMK A01 T03960150  RH  024%=      5-min Rain = 0
KPD2 121902Z 16006KT 39/15 A2992 RMK A01 T03940151  RH  024%=      5-min Rain = 0
KPD2 121903Z 13001KT 39/15 A2991 RMK A01 T03920153  RH  025%=      5-min Rain = 0
KPD2 121904Z 17002KT 39/15 A2991 RMK A01 T03920150  RH  024%=      5-min Rain = 0
KPD2 121905Z 16007KT 39/15 A2991 RMK A01 T03940154  RH  025%=      5-min Rain = 0
KPD2 121906Z 15005KT 40/15 A2991 RMK A01 T03970151  RH  024%=      5-min Rain = 0
KPD2 121907Z 16004KT 40/15 A2991 RMK A01 T03970151  RH  024%=      5-min Rain = 0
KPD2 121908Z 16004KT 39/15 A2991 RMK A01 T03930151  RH  024%=      5-min Rain = 0
KPD2 121909Z 16004KT 39/15 A2991 RMK A01 T03920152  RH  024%=      5-min Rain = 0
KPD2 121910Z 23005KT 39/16 A2991 RMK A01 T03920155  RH  025%=      5-min Rain = 0
KPD2 121911Z 23004KT 39/16 A2991 RMK A01 T03920155  RH  025%=      5-min Rain = 0
KPD2 121912Z 25006KT 39/16 A2991 RMK A01 T03920155  RH  025%=      5-min Rain = 0
KPD2 121913Z 24007KT 39/16 A2991 RMK A01 T03930156  RH  025%=      5-min Rain = 0
KPD2 121914Z 14007KT 40/16 A2991 RMK A01 T03950155  RH  024%=      5-min Rain = 0
KPD2 121915Z 14006G13KT 40/16 A2991 RMK A01 T04000155  RH  024%=      5-min Rain = 0
KPD2 121916Z 13009KT 40/15 A2991 RMK A01 T04030154  RH  023%=      5-min Rain = 0
KPD2 121917Z 17005KT 41/16 A2991 RMK A01 T04050155  RH  023%=      5-min Rain = 0
KPD2 121918Z 16002KT 41/16 A2991 RMK A01 T04060156  RH  023%=      5-min Rain = 0
KPD2 121919Z 22002G9KT 41/16 A2991 RMK A01 T04080156  RH  023%=      5-min Rain = 0
KPD2 121920Z 22004KT 41/15 A2991 RMK A01 T04060151  RH  022%=      5-min Rain = 0
KPD2 121921Z 22008KT 40/15 A2991 RMK A01 T04030150  RH  023%=      5-min Rain = 0
KPD2 121922Z 21005KT 40/15 A2991 RMK A01 T04030147  RH  022%=      5-min Rain = 0
KPD2 121923Z 20006KT 40/15 A2991 RMK A01 T04010147  RH  022%=      5-min Rain = 0
KPD2 121924Z 20005KT 40/15 A2991 RMK A01 T03980149  RH  023%=      5-min Rain = 0
KPD2 121925Z 24003G8KT 40/15 A299 RMK A01 T03960151  RH  024%=      5-min Rain = 0
KPD2 121926Z 24005KT 40/15 A2991 RMK A01 T03980153  RH  024%=      5-min Rain = 0
KPD2 121927Z 20005G10KT 40/15 A2991 RMK A01 T03990154  RH  024%=      5-min Rain = 0
KPD2 121928Z 14007KT 40/15 A2991 RMK A01 T03980152  RH  024%=      5-min Rain = 0
KPD2 121929Z 16007KT 40/15 A2991 RMK A01 T03960152  RH  024%=      5-min Rain = 0
KPD2 121930Z 13008KT 39/15 A2991 RMK A01 T03930150  RH  024%=      5-min Rain = 0
KPD2 121931Z 14006KT 39/15 A2991 RMK A01 T03900151  RH  025%=      5-min Rain = 0
KPD2 121932Z 14006KT 39/15 A299 RMK A01 T03900149  RH  024%=      5-min Rain = 0
KPD2 121933Z 16006KT 39/15 A299 RMK A01 T03930150  RH  024%=      5-min Rain = 0
KPD2 121934Z 14008KT 40/15 A299 RMK A01 T03970149  RH  023%=      5-min Rain = 0
KPD2 121935Z 15014G20KT 40/15 A299 RMK A01 T03980148  RH  023%=      5-min Rain = 0
KPD2 121936Z 14013KT 40/15 A299 RMK A01 T04000147  RH  023%=      5-min Rain = 0
KPD2 121937Z 14014KT 40/15 A299 RMK A01 T04000145  RH  022%=      5-min Rain = 0
KPD2 121938Z 14013KT 40/14 A299 RMK A01 T03970144  RH  023%=      5-min Rain = 0
KPD2 121939Z 12009KT 39/15 A299 RMK A01 T03910145  RH  023%=      5-min Rain = 0
KPD2 121940Z 17007KT 39/15 A299 RMK A01 T03900147  RH  024%=      5-min Rain = 0
KPD2 121941Z 15007KT 39/15 A299 RMK A01 T03900149  RH  024%=      5-min Rain = 0
KPD2 121942Z 15006KT 39/15 A299 RMK A01 T03890149  RH  024%=      5-min Rain = 0
KPD2 121943Z 10010G15KT 39/15 A299 RMK A01 T03890150  RH  025%=      5-min Rain = 0
KPD2 121944Z 18005KT 39/15 A299 RMK A01 T03930150  RH  024%=      5-min Rain = 0
KPD2 121945Z 20012KT 40/15 A299 RMK A01 T03950149  RH  023%=      5-min Rain = 0
KPD2 121946Z 20007KT 40/15 A299 RMK A01 T03950148  RH  023%=      5-min Rain = 0
KPD2 121947Z 26004KT 40/15 A299 RMK A01 T03950147  RH  023%=      5-min Rain = 0
KPD2 121948Z 13001KT 39/15 A299 RMK A01 T03940150  RH  024%=      5-min Rain = 0
KPD2 121949Z 12005KT 40/15 A299 RMK A01 T03990153  RH  024%=      5-min Rain = 0
KPD2 121950Z 14005KT 41/15 A299 RMK A01 T04050150  RH  023%=      5-min Rain = 0
KPD2 121951Z 19004KT 41/15 A299 RMK A01 T04080148  RH  022%=      5-min Rain = 0
KPD2 121952Z 17007KT 41/15 A299 RMK A01 T04050148  RH  022%=      5-min Rain = 0
KPD2 121953Z 15006KT 40/15 A299 RMK A01 T04010147  RH  023%=      5-min Rain = 0
KPD2 121954Z 16011KT 40/15 A299 RMK A01 T03970145  RH  023%=      5-min Rain = 0
KPD2 121955Z 19009KT 39/14 A299 RMK A01 T03920144  RH  023%=      5-min Rain = 0
KPD2 121956Z 20009KT 39/15 A299 RMK A01 T03890147  RH  024%=      5-min Rain = 0
KPD2 121957Z 17008KT 39/15 A299 RMK A01 T03870145  RH  024%=      5-min Rain = 0
KPD2 121958Z 17008KT 39/14 A299 RMK A01 T03850143  RH  024%=      5-min Rain = 0
KPD2 121959Z 19005G11KT 39/14 A299 RMK A01 T03850142  RH  024%=      5-min Rain = 0
KPD2 122000Z 20006KT 39/15 A299 RMK A01 T03870146  RH  024%=      5-min Rain = 0
KPD2 122001Z 20005KT 39/15 A299 RMK A01 T03910148  RH  024%=      5-min Rain = 0
KPD2 122002Z 17005KT 39/15 A299 RMK A01 T03930148  RH  024%=      5-min Rain = 0
KPD2 122003Z 14006KT 39/15 A299 RMK A01 T03930148  RH  024%=      5-min Rain = 0
KPD2 122004Z 16008KT 39/15 A299 RMK A01 T03940147  RH  023%=      5-min Rain = 0
KPD2 122005Z 17005KT 39/15 A299 RMK A01 T03910145  RH  023%=      5-min Rain = 0
KPD2 122006Z 20006KT 39/15 A299 RMK A01 T03870146  RH  024%=      5-min Rain = 0
KPD2 122007Z 19007KT 39/14 A299 RMK A01 T03850143  RH  024%=      5-min Rain = 0
KPD2 122008Z 19005KT 38/14 A299 RMK A01 T03830141  RH  024%=      5-min Rain = 0
KPD2 122009Z 20008KT 38/14 A299 RMK A01 T03820141  RH  024%=      5-min Rain = 0
KPD2 122010Z 17007KT 38/14 A299 RMK A01 T03820140  RH  024%=      5-min Rain = 0
KPD2 122011Z 18005KT 38/14 A299 RMK A01 T03810140  RH  024%=      5-min Rain = 0
KPD2 122012Z 19008KT 38/14 A299 RMK A01 T03820141  RH  024%=      5-min Rain = 0
KPD2 122013Z 18009KT 38/14 A299 RMK A01 T03830142  RH  024%=      5-min Rain = 0
KPD2 122014Z 21007KT 38/14 A299 RMK A01 T03830143  RH  024%=      5-min Rain = 0
KPD2 122015Z 18003KT 38/15 A299 RMK A01 T03830145  RH  024%=      5-min Rain = 0
KPD2 122016Z 18005KT 38/14 A299 RMK A01 T03830143  RH  024%=      5-min Rain = 0
KPD2 122017Z 24004KT 38/15 A299 RMK A01 T03820145  RH  025%=      5-min Rain = 0
KPD2 122018Z 23004KT 38/15 A2989 RMK A01 T03830145  RH  025%=      5-min Rain = 0
KPD2 122019Z 26005KT 38/15 A2989 RMK A01 T03830146  RH  025%=      5-min Rain = 0
KPD2 122020Z 26006KT 38/15 A2989 RMK A01 T03820148  RH  025%=      5-min Rain = 0
KPD2 122021Z 20005KT 38/15 A2989 RMK A01 T03820146  RH  025%=      5-min Rain = 0
KPD2 122022Z 22008G13KT 38/14 A2989 RMK A01 T03810144  RH  025%=      5-min Rain = 0
KPD2 122023Z 19008KT 38/15 A2989 RMK A01 T03800147  RH  025%=      5-min Rain = 0
KPD2 122024Z 19007KT 38/15 A2989 RMK A01 T03790146  RH  025%=      5-min Rain = 0
KPD2 122025Z 18008KT 38/15 A2989 RMK A01 T03780145  RH  025%=      5-min Rain = 0
KPD2 122026Z 18008G13KT 38/15 A2989 RMK A01 T03770145  RH  025%=      5-min Rain = 0
KPD2 122027Z 16009KT 38/15 A2989 RMK A01 T03780147  RH  025%=      5-min Rain = 0
KPD2 122028Z 15009KT 38/15 A2989 RMK A01 T03800147  RH  025%=      5-min Rain = 0
KPD2 122029Z 15007KT 38/15 A2989 RMK A01 T03810147  RH  025%=      5-min Rain = 0
KPD2 122030Z 15008KT 38/15 A2988 RMK A01 T03810148  RH  025%=      5-min Rain = 0
KPD2 122031Z 15010KT 38/15 A2988 RMK A01 T03820148  RH  025%=      5-min Rain = 0
KPD2 122032Z 15006KT 38/15 A2988 RMK A01 T03830148  RH  025%=      5-min Rain = 0
KPD2 122033Z 14007KT 39/15 A2988 RMK A01 T03870149  RH  025%=      5-min Rain = 0
KPD2 122034Z 15003KT 39/15 A2988 RMK A01 T03900148  RH  024%=      5-min Rain = 0
KPD2 122035Z 17004KT 40/15 A2988 RMK A01 T03950150  RH  024%=      5-min Rain = 0
KPD2 122036Z 16005KT 40/15 A2988 RMK A01 T03970149  RH  023%=      5-min Rain = 0
KPD2 122037Z 18004KT 40/15 A2988 RMK A01 T03950148  RH  023%=      5-min Rain = 0
KPD2 122038Z 11001KT 39/15 A2988 RMK A01 T03930148  RH  024%=      5-min Rain = 0
KPD2 122039Z 15004G9KT 39/15 A2988 RMK A01 T03940146  RH  023%=      5-min Rain = 0
KPD2 122040Z 13006G13KT 39/15 A2988 RMK A01 T03940147  RH  023%=      5-min Rain = 0
KPD2 122041Z 17013KT 39/15 A2987 RMK A01 T03940147  RH  023%=      5-min Rain = 0
KPD2 122042Z 15009KT 39/15 A2988 RMK A01 T03910147  RH  024%=      5-min Rain = 0
KPD2 122043Z 15010G16KT 39/15 A2988 RMK A01 T03890148  RH  024%=      5-min Rain = 0
KPD2 122044Z 14009KT 39/15 A2988 RMK A01 T03860148  RH  025%=      5-min Rain = 0
KPD2 122045Z 13008G15KT 38/15 A2988 RMK A01 T03840148  RH  025%=      5-min Rain = 0
KPD2 122046Z 12011KT 39/15 A2988 RMK A01 T03850150  RH  025%=      5-min Rain = 0
KPD2 122047Z 14010G15KT 39/15 A2988 RMK A01 T03880149  RH  025%=      5-min Rain = 0
KPD2 122048Z 17006KT 39/15 A2988 RMK A01 T03880150  RH  025%=      5-min Rain = 0
KPD2 122049Z 15009KT 39/15 A2988 RMK A01 T03880150  RH  024%=      5-min Rain = 0
KPD2 122050Z 15013KT 39/15 A2988 RMK A01 T03890146  RH  024%=      5-min Rain = 0
KPD2 122051Z 17009G14KT 39/15 A2988 RMK A01 T03900149  RH  024%=      5-min Rain = 0
KPD2 122052Z 17013KT 39/15 A2987 RMK A01 T03910150  RH  024%=      5-min Rain = 0
KPD2 122053Z 16010G15KT 39/15 A2987 RMK A01 T03910149  RH  024%=      5-min Rain = 0
KPD2 122054Z 17010KT 39/15 A2987 RMK A01 T03930150  RH  024%=      5-min Rain = 0
KPD2 122055Z 17012KT 39/15 A2987 RMK A01 T03920149  RH  024%=      5-min Rain = 0
KPD2 122056Z 17008KT 39/15 A2987 RMK A01 T03910150  RH  024%=      5-min Rain = 0
KPD2 122057Z 16009KT 39/15 A2987 RMK A01 T03910150  RH  024%=      5-min Rain = 0
KPD2 122058Z 16011KT 39/15 A2987 RMK A01 T03910149  RH  024%=      5-min Rain = 0
KPD2 122059Z 14014G19KT 39/15 A2987 RMK A01 T03890149  RH  024%=      5-min Rain = 0
KPD2 122100Z 15019KT 39/15 A2987 RMK A01 T03870148  RH  025%=      5-min Rain = 0
KPD2 122101Z 16015G20KT 38/15 A2987 RMK A01 T03840147  RH  025%=      5-min Rain = 0
KPD2 122102Z 15015G22KT 38/15 A2987 RMK A01 T03810147  RH  025%=      5-min Rain = 0
KPD2 122103Z 15013KT 38/15 A2987 RMK A01 T03810147  RH  025%=      5-min Rain = 0
KPD2 122104Z 16012KT 38/15 A2988 RMK A01 T03820147  RH  025%=      5-min Rain = 0
KPD2 122105Z 16014KT 39/15 A2987 RMK A01 T03860149  RH  025%=      5-min Rain = 0
KPD2 122106Z 18010KT 39/15 A2987 RMK A01 T03870150  RH  025%=      5-min Rain = 0
KPD2 122107Z 14011KT 39/15 A2987 RMK A01 T03880152  RH  025%=      5-min Rain = 0
KPD2 122108Z 15016KT 39/15 A2987 RMK A01 T03910153  RH  025%=      5-min Rain = 0
KPD2 122109Z 15012G18KT 39/15 A2987 RMK A01 T03910154  RH  025%=      5-min Rain = 0
KPD2 122110Z 15015KT 39/15 A2987 RMK A01 T03880152  RH  025%=      5-min Rain = 0
KPD2 122111Z 18011G16KT 38/15 A2987 RMK A01 T03840151  RH  025%=      5-min Rain = 0
KPD2 122112Z 15009KT 38/15 A2987 RMK A01 T03830150  RH  025%=      5-min Rain = 0
KPD2 122113Z 16015G20KT 39/15 A2987 RMK A01 T03860152  RH  025%=      5-min Rain = 0
KPD2 122114Z 16015KT 39/15 A2987 RMK A01 T03880151  RH  025%=      5-min Rain = 0
KPD2 122115Z 15012KT 39/15 A2987 RMK A01 T03880151  RH  025%=      5-min Rain = 0
KPD2 122116Z 16008G13KT 39/15 A2987 RMK A01 T03850151  RH  025%=      5-min Rain = 0
KPD2 122117Z 16009KT 39/15 A2987 RMK A01 T03870151  RH  025%=      5-min Rain = 0
KPD2 122118Z 19005KT 39/15 A2987 RMK A01 T03880151  RH  025%=      5-min Rain = 0
KPD2 122119Z 18003KT 39/16 A2987 RMK A01 T03910156  RH  025%=      5-min Rain = 0
KPD2 122120Z 15004KT 40/15 A2986 RMK A01 T03950152  RH  024%=      5-min Rain = 0
KPD2 122121Z 14006G14KT 40/15 A2986 RMK A01 T03950153  RH  024%=      5-min Rain = 0
KPD2 122122Z 15012G17KT 39/15 A2986 RMK A01 T03940151  RH  024%=      5-min Rain = 0
KPD2 122123Z 18008KT 39/15 A2986 RMK A01 T03900149  RH  024%=      5-min Rain = 0
KPD2 122124Z 17013KT 39/15 A2987 RMK A01 T03860149  RH  025%=      5-min Rain = 0
KPD2 122125Z 16010G15KT 38/15 A2987 RMK A01 T03830147  RH  025%=      5-min Rain = 0
KPD2 122126Z 17006KT 38/15 A2987 RMK A01 T03800146  RH  025%=      5-min Rain = 0
KPD2 122127Z 17005KT 38/15 A2987 RMK A01 T03780148  RH  026%=      5-min Rain = 0
KPD2 122128Z 16006KT 38/15 A2986 RMK A01 T03780147  RH  026%=      5-min Rain = 0
KPD2 122129Z 15008KT 38/15 A2986 RMK A01 T03790147  RH  025%=      5-min Rain = 0
KPD2 122130Z 14007KT 38/15 A2986 RMK A01 T03800147  RH  025%=      5-min Rain = 0
KPD2 122131Z 15009G16KT 38/15 A2986 RMK A01 T03800148  RH  025%=      5-min Rain = 0
KPD2 122132Z 16009KT 38/15 A2986 RMK A01 T03800148  RH  025%=      5-min Rain = 0
KPD2 122133Z 22006KT 38/15 A2986 RMK A01 T03780149  RH  026%=      5-min Rain = 0
KPD2 122134Z 18007KT 38/15 A2986 RMK A01 T03760149  RH  026%=      5-min Rain = 0
KPD2 122135Z 16010KT 38/15 A2986 RMK A01 T03760149  RH  026%=      5-min Rain = 0
KPD2 122136Z 16009KT 38/15 A2986 RMK A01 T03760149  RH  026%=      5-min Rain = 0
KPD2 122137Z 14011KT 38/15 A2986 RMK A01 T03760150  RH  026%=      5-min Rain = 0
KPD2 122138Z 15011KT 38/15 A2986 RMK A01 T03780151  RH  026%=      5-min Rain = 0
KPD2 122139Z 16011KT 38/15 A2986 RMK A01 T03830152  RH  026%=      5-min Rain = 0
KPD2 122140Z 16013G18KT 39/15 A2986 RMK A01 T03850151  RH  025%=      5-min Rain = 0
KPD2 122141Z 14007KT 39/15 A2986 RMK A01 T03850151  RH  025%=      5-min Rain = 0
KPD2 122142Z 15011G17KT 39/15 A2986 RMK A01 T03880153  RH  025%=      5-min Rain = 0
KPD2 122143Z 14007G13KT 39/15 A2986 RMK A01 T03900152  RH  025%=      5-min Rain = 0
KPD2 122144Z 14011KT 39/15 A2986 RMK A01 T03900152  RH  025%=      5-min Rain = 0
KPD2 122145Z 17010KT 39/15 A2986 RMK A01 T03880150  RH  025%=      5-min Rain = 0
KPD2 122146Z 16006G11KT 39/15 A2986 RMK A01 T03850151  RH  025%=      5-min Rain = 0
KPD2 122147Z 16009KT 38/15 A2986 RMK A01 T03830152  RH  026%=      5-min Rain = 0
KPD2 122148Z 17010KT 38/15 A2986 RMK A01 T03820151  RH  026%=      5-min Rain = 0
KPD2 122149Z 15008KT 38/15 A2986 RMK A01 T03810151  RH  026%=      5-min Rain = 0
KPD2 122150Z 14008KT 38/15 A2986 RMK A01 T03800151  RH  026%=      5-min Rain = 0
KPD2 122151Z 15009KT 38/15 A2986 RMK A01 T03800149  RH  026%=      5-min Rain = 0
KPD2 122152Z 14004KT 38/15 A2986 RMK A01 T03780149  RH  026%=      5-min Rain = 0
KPD2 122153Z 14007KT 38/15 A2986 RMK A01 T03770150  RH  026%=      5-min Rain = 0
KPD2 122154Z 15005KT 38/15 A2986 RMK A01 T03770149  RH  026%=      5-min Rain = 0
KPD2 122155Z 13005KT 38/15 A2986 RMK A01 T03770149  RH  026%=      5-min Rain = 0
KPD2 122156Z 16006KT 38/15 A2986 RMK A01 T03780148  RH  026%=      5-min Rain = 0
KPD2 122157Z 17006KT 38/15 A2986 RMK A01 T03770148  RH  026%=      5-min Rain = 0
KPD2 122158Z 14006KT 38/15 A2986 RMK A01 T03770149  RH  026%=      5-min Rain = 0
KPD2 122159Z 14009KT 38/15 A2986 RMK A01 T03780148  RH  026%=      5-min Rain = 0
KPD2 122200Z 15012KT 38/15 A2986 RMK A01 T03790146  RH  025%=      5-min Rain = 0
KPD2 122201Z 16007KT 38/15 A2986 RMK A01 T03820146  RH  025%=      5-min Rain = 0
KPD2 122202Z 18010G16KT 38/15 A2986 RMK A01 T03840147  RH  025%=      5-min Rain = 0
KPD2 122203Z 17006KT 38/15 A2986 RMK A01 T03830146  RH  025%=      5-min Rain = 0
KPD2 122204Z 15008KT 38/15 A2986 RMK A01 T03810146  RH  025%=      5-min Rain = 0
KPD2 122205Z 16010G16KT 38/15 A2986 RMK A01 T03810145  RH  025%=      5-min Rain = 0
KPD2 122206Z 15008G13KT 38/15 A2986 RMK A01 T03790145  RH  025%=      5-min Rain = 0
KPD2 122207Z 16007KT 38/14 A2985 RMK A01 T03780144  RH  025%=      5-min Rain = 0
KPD2 122208Z 22008G13KT 38/15 A2986 RMK A01 T03770145  RH  025%=      5-min Rain = 0
KPD2 122209Z 20007G12KT 38/15 A2986 RMK A01 T03760145  RH  025%=      5-min Rain = 0
KPD2 122210Z 18010G15KT 38/15 A2986 RMK A01 T03760145  RH  025%=      5-min Rain = 0
KPD2 122211Z 16012KT 38/14 A2986 RMK A01 T03760143  RH  025%=      5-min Rain = 0
KPD2 122212Z 16011G17KT 38/14 A2986 RMK A01 T03770141  RH  025%=      5-min Rain = 0
KPD2 122213Z 19008KT 38/14 A2986 RMK A01 T03780142  RH  025%=      5-min Rain = 0
KPD2 122214Z 15005KT 38/14 A2985 RMK A01 T03800144  RH  025%=      5-min Rain = 0
KPD2 122215Z 13012G17KT 39/15 A2985 RMK A01 T03850147  RH  024%=      5-min Rain = 0
KPD2 122216Z 18010KT 39/14 A2985 RMK A01 T03910143  RH  023%=      5-min Rain = 0
KPD2 122217Z 14008G19KT 39/14 A2985 RMK A01 T03930143  RH  023%=      5-min Rain = 0
KPD2 122218Z 13010G20KT 39/14 A2985 RMK A01 T03930143  RH  023%=      5-min Rain = 0
KPD2 122219Z 12009KT 40/14 A2985 RMK A01 T03960144  RH  023%=      5-min Rain = 0
KPD2 122220Z 10008KT 40/15 A2985 RMK A01 T03980145  RH  023%=      5-min Rain = 0
KPD2 122221Z 13008KT 40/15 A2985 RMK A01 T03990146  RH  023%=      5-min Rain = 0
KPD2 122222Z 20008G14KT 40/14 A2985 RMK A01 T04010144  RH  022%=      5-min Rain = 0
KPD2 122223Z 18008G14KT 40/14 A2985 RMK A01 T03970141  RH  022%=      5-min Rain = 0
KPD2 122224Z 15003KT 40/14 A2985 RMK A01 T03950141  RH  022%=      5-min Rain = 0
KPD2 122225Z 17004KT 40/14 A2985 RMK A01 T03950142  RH  023%=      5-min Rain = 0
KPD2 122226Z 21005KT 40/14 A2985 RMK A01 T03960143  RH  023%=      5-min Rain = 0
KPD2 122227Z 16006KT 40/15 A2985 RMK A01 T03960145  RH  023%=      5-min Rain = 0
KPD2 122228Z 17004G11KT 40/14 A2985 RMK A01 T03970142  RH  022%=      5-min Rain = 0
KPD2 122229Z 19005KT 40/14 A2985 RMK A01 T03970143  RH  022%=      5-min Rain = 0
KPD2 122230Z 17007KT 40/14 A2985 RMK A01 T03970144  RH  023%=      5-min Rain = 0
KPD2 122231Z 16004G10KT 40/15 A2985 RMK A01 T03990145  RH  022%=      5-min Rain = 0
KPD2 122232Z 15009G15KT 40/14 A2985 RMK A01 T04000144  RH  022%=      5-min Rain = 0
KPD2 122233Z 13010G15KT 40/15 A2985 RMK A01 T04010145  RH  022%=      5-min Rain = 0
KPD2 122234Z 13008G14KT 40/15 A2985 RMK A01 T03990145  RH  022%=      5-min Rain = 0
KPD2 122235Z 15008G14KT 40/14 A2985 RMK A01 T03960143  RH  023%=      5-min Rain = 0
KPD2 122236Z 15009KT 39/14 A2985 RMK A01 T03930142  RH  023%=      5-min Rain = 0
KPD2 122237Z 15009KT 39/14 A2985 RMK A01 T03900141  RH  023%=      5-min Rain = 0
KPD2 122238Z 18006KT 39/14 A2985 RMK A01 T03900142  RH  023%=      5-min Rain = 0
KPD2 122239Z 19007KT 39/14 A2985 RMK A01 T03900142  RH  023%=      5-min Rain = 0
KPD2 122240Z 21005G10KT 39/14 A2985 RMK A01 T03910142  RH  023%=      5-min Rain = 0
KPD2 122241Z 19003KT 39/14 A2985 RMK A01 T03910142  RH  023%=      5-min Rain = 0
KPD2 122242Z 20007KT 39/14 A2985 RMK A01 T03920143  RH  023%=      5-min Rain = 0
KPD2 122243Z 26005KT 39/14 A2985 RMK A01 T03930141  RH  023%=      5-min Rain = 0
KPD2 122244Z 14004KT 39/14 A2985 RMK A01 T03940138  RH  022%=      5-min Rain = 0
KPD2 122245Z 17010G16KT 39/14 A2985 RMK A01 T03930142  RH  023%=      5-min Rain = 0
KPD2 122246Z 21008KT 39/14 A2985 RMK A01 T03940144  RH  023%=      5-min Rain = 0
KPD2 122247Z 19008KT 40/14 A2985 RMK A01 T03960142  RH  022%=      5-min Rain = 0
KPD2 122248Z 20008KT 40/14 A2985 RMK A01 T03960141  RH  022%=      5-min Rain = 0
KPD2 122249Z 18009KT 39/14 A2985 RMK A01 T03940141  RH  022%=      5-min Rain = 0
KPD2 122250Z 18009KT 39/14 A2985 RMK A01 T03910139  RH  023%=      5-min Rain = 0
KPD2 122251Z 19007KT 39/14 A2985 RMK A01 T03890140  RH  023%=      5-min Rain = 0
KPD2 122252Z 20006KT 39/14 A2985 RMK A01 T03880140  RH  023%=      5-min Rain = 0
KPD2 122253Z 21005KT 39/14 A2985 RMK A01 T03880141  RH  023%=      5-min Rain = 0
KPD2 122254Z 23005KT 39/14 A2985 RMK A01 T03880140  RH  023%=      5-min Rain = 0
KPD2 122255Z 21008KT 39/14 A2985 RMK A01 T03890141  RH  023%=      5-min Rain = 0
KPD2 122256Z 17008KT 39/14 A2985 RMK A01 T03880139  RH  023%=      5-min Rain = 0
KPD2 122257Z 15006KT 39/14 A2985 RMK A01 T03850140  RH  023%=      5-min Rain = 0
KPD2 122258Z 19003KT 38/14 A2985 RMK A01 T03840139  RH  023%=      5-min Rain = 0
KPD2 122259Z 25004KT 38/14 A2985 RMK A01 T03840140  RH  024%=      5-min Rain = 0
KPD2 122300Z 22003KT 38/14 A2985 RMK A01 T03830140  RH  024%=      5-min Rain = 0
KPD2 122301Z 21003KT 38/14 A2985 RMK A01 T03820140  RH  024%=      5-min Rain = 0
KPD2 122302Z 19004KT 38/14 A2985 RMK A01 T03820141  RH  024%=      5-min Rain = 0
KPD2 122303Z 20004KT 38/14 A2985 RMK A01 T03830139  RH  024%=      5-min Rain = 0
KPD2 122304Z 21006KT 39/14 A2985 RMK A01 T03850140  RH  023%=      5-min Rain = 0
KPD2 122305Z 20006KT 39/14 A2985 RMK A01 T03880138  RH  023%=      5-min Rain = 0
KPD2 122306Z 20006KT 39/14 A2985 RMK A01 T03910135  RH  022%=      5-min Rain = 0
KPD2 122307Z 19003KT 39/14 A2985 RMK A01 T03920137  RH  022%=      5-min Rain = 0
KPD2 122308Z 20003KT 39/14 A2985 RMK A01 T03930137  RH  022%=      5-min Rain = 0
KPD2 122309Z 25005KT 39/14 A2985 RMK A01 T03930140  RH  022%=      5-min Rain = 0
KPD2 122310Z 18003KT 39/14 A2985 RMK A01 T03910139  RH  022%=      5-min Rain = 0
KPD2 122311Z 19003KT 39/14 A2985 RMK A01 T03910135  RH  022%=      5-min Rain = 0
KPD2 122312Z 21006KT 39/14 A2985 RMK A01 T03900137  RH  022%=      5-min Rain = 0
KPD2 122313Z 24004KT 39/14 A2985 RMK A01 T03890142  RH  023%=      5-min Rain = 0
KPD2 122314Z 21003KT 39/14 A2985 RMK A01 T03890143  RH  023%=      5-min Rain = 0
KPD2 122315Z 17006KT 39/14 A2985 RMK A01 T03890141  RH  023%=      5-min Rain = 0
KPD2 122316Z 17008KT 39/14 A2985 RMK A01 T03880141  RH  023%=      5-min Rain = 0
KPD2 122317Z 16005KT 39/14 A2985 RMK A01 T03860141  RH  023%=      5-min Rain = 0
KPD2 122318Z 16005KT 39/14 A2985 RMK A01 T03850141  RH  024%=      5-min Rain = 0
KPD2 122319Z 20005KT 38/14 A2985 RMK A01 T03840143  RH  024%=      5-min Rain = 0
KPD2 122320Z 19008KT 38/14 A2985 RMK A01 T03820143  RH  024%=      5-min Rain = 0
KPD2 122321Z 17006KT 38/14 A2985 RMK A01 T03810141  RH  024%=      5-min Rain = 0
KPD2 122322Z 20003KT 38/14 A2986 RMK A01 T03800140  RH  024%=      5-min Rain = 0
KPD2 122323Z 19001KT 38/14 A2986 RMK A01 T03790140  RH  024%=      5-min Rain = 0
KPD2 122324Z 12001KT 38/14 A2986 RMK A01 T03790140  RH  024%=      5-min Rain = 0
KPD2 122325Z 03006G13KT 38/15 A2986 RMK A01 T03790145  RH  025%=      5-min Rain = 0
KPD2 122326Z 01009KT 37/18 A2986 RMK A01 T03740175  RH  031%=      5-min Rain = 0
KPD2 122327Z 02009G14KT 36/18 A2986 RMK A01 T03630177  RH  033%=      5-min Rain = 0
KPD2 122328Z 03012KT 35/18 A2986 RMK A01 T03540178  RH  035%=      5-min Rain = 0
KPD2 122329Z 03016KT 35/18 A2986 RMK A01 T03460177  RH  037%=      5-min Rain = 0
KPD2 122330Z 03015KT 34/18 A2986 RMK A01 T03400177  RH  038%=      5-min Rain = 0
KPD2 122331Z 03012KT 34/18 A2986 RMK A01 T03360177  RH  039%=      5-min Rain = 0
KPD2 122332Z 00012KT 33/18 A2986 RMK A01 T03340177  RH  039%=      5-min Rain = 0
KPD2 122333Z 36011KT 33/18 A2986 RMK A01 T03340177  RH  039%=      5-min Rain = 0
KPD2 122334Z 00011KT 33/18 A2986 RMK A01 T03340176  RH  039%=      5-min Rain = 0
KPD2 122335Z 01014KT 33/18 A2986 RMK A01 T03330176  RH  039%=      5-min Rain = 0
KPD2 122336Z 35012KT 33/18 A2986 RMK A01 T03330176  RH  039%=      5-min Rain = 0
KPD2 122337Z 35011KT 33/18 A2986 RMK A01 T03320177  RH  040%=      5-min Rain = 0
KPD2 122338Z 01010KT 33/18 A2986 RMK A01 T03310178  RH  040%=      5-min Rain = 0
KPD2 122339Z 01013KT 33/18 A2986 RMK A01 T03310178  RH  040%=      5-min Rain = 0
KPD2 122340Z 01011KT 33/18 A2986 RMK A01 T03300178  RH  040%=      5-min Rain = 0
KPD2 122341Z 01008G14KT 33/18 A2986 RMK A01 T03300177  RH  040%=      5-min Rain = 0
KPD2 122342Z 00013KT 33/18 A2986 RMK A01 T03290178  RH  041%=      5-min Rain = 0
KPD2 122343Z 36012KT 33/18 A2986 RMK A01 T03280180  RH  041%=      5-min Rain = 0
KPD2 122344Z 36014KT 33/18 A2986 RMK A01 T03270182  RH  042%=      5-min Rain = 0
KPD2 122345Z 01014KT 33/19 A2987 RMK A01 T03260185  RH  043%=      5-min Rain = 0
KPD2 122346Z 02011G17KT 32/19 A2986 RMK A01 T03240187  RH  044%=      5-min Rain = 0
KPD2 122347Z 01012G17KT 32/19 A2986 RMK A01 T03230188  RH  045%=      5-min Rain = 0
KPD2 122348Z 01013KT 32/19 A2987 RMK A01 T03220188  RH  045%=      5-min Rain = 0
KPD2 122349Z 01010G15KT 32/19 A2987 RMK A01 T03220190  RH  046%=      5-min Rain = 0
KPD2 122350Z 03011G16KT 32/19 A2987 RMK A01 T03210191  RH  046%=      5-min Rain = 0
KPD2 122351Z 02009KT 32/19 A2987 RMK A01 T03200191  RH  046%=      5-min Rain = 0
KPD2 122352Z 01009KT 32/19 A2987 RMK A01 T03190189  RH  046%=      5-min Rain = 0
KPD2 122353Z 03009G14KT 32/19 A2987 RMK A01 T03190188  RH  046%=      5-min Rain = 0
KPD2 122354Z 03007KT 32/18 A2987 RMK A01 T03170183  RH  045%=      5-min Rain = 0
KPD2 122355Z 03011KT 32/18 A2987 RMK A01 T03170179  RH  044%=      5-min Rain = 0
KPD2 122356Z 02012KT 32/18 A2987 RMK A01 T03170176  RH  043%=      5-min Rain = 0
KPD2 122357Z 00011KT 32/18 A2987 RMK A01 T03170176  RH  043%=      5-min Rain = 0
KPD2 122358Z 36010G17KT 32/18 A2987 RMK A01 T03170177  RH  043%=      5-min Rain = 0
KPD2 122359Z 36012G18KT 32/18 A2987 RMK A01 T03170177  RH  043%=      5-min Rain = 0
KPD2 130000Z 01013G21KT 32/18 A2987 RMK A01 T03170178  RH  044%=      5-min Rain = 0
KPD2 130001Z 01011KT 32/18 A2987 RMK A01 T03170178  RH  044%=      5-min Rain = 0
KPD2 130002Z 01011G17KT 32/18 A2987 RMK A01 T03170179  RH  044%=      5-min Rain = 0
KPD2 130003Z 01010KT 32/18 A2987 RMK A01 T03170179  RH  044%=      5-min Rain = 0
KPD2 130004Z 01011G16KT 32/18 A2987 RMK A01 T03170178  RH  044%=      5-min Rain = 0
KPD2 130005Z 00011KT 32/18 A2987 RMK A01 T03170178  RH  044%=      5-min Rain = 0
KPD2 130006Z 00012KT 32/18 A2987 RMK A01 T03160178  RH  044%=      5-min Rain = 0
KPD2 130007Z 01011G16KT 32/18 A2987 RMK A01 T03160178  RH  044%=      5-min Rain = 0
KPD2 130008Z 02009G14KT 32/18 A2987 RMK A01 T03160180  RH  044%=      5-min Rain = 0
KPD2 130009Z 36011G17KT 32/18 A2987 RMK A01 T03150181  RH  045%=      5-min Rain = 0
KPD2 130010Z 01012G18KT 31/18 A2987 RMK A01 T03140183  RH  046%=      5-min Rain = 0
KPD2 130011Z 02011G17KT 31/18 A2987 RMK A01 T03140183  RH  046%=      5-min Rain = 0
KPD2 130012Z 02008KT 31/18 A2987 RMK A01 T03130183  RH  046%=      5-min Rain = 0
KPD2 130013Z 01008G13KT 31/19 A2987 RMK A01 T03130185  RH  046%=      5-min Rain = 0
KPD2 130014Z 36011KT 31/19 A2987 RMK A01 T03120185  RH  047%=      5-min Rain = 0
KPD2 130015Z 01010KT 31/19 A2987 RMK A01 T03110185  RH  047%=      5-min Rain = 0
KPD2 130016Z 00012KT 31/19 A2987 RMK A01 T03110187  RH  048%=      5-min Rain = 0
KPD2 130017Z 36010G16KT 31/19 A2987 RMK A01 T03100189  RH  048%=      5-min Rain = 0
KPD2 130018Z 01011G18KT 31/19 A2987 RMK A01 T03090189  RH  049%=      5-min Rain = 0
KPD2 130019Z 01008G16KT 31/19 A2987 RMK A01 T03080188  RH  049%=      5-min Rain = 0
KPD2 130020Z 01011G19KT 31/19 A2987 RMK A01 T03070188  RH  049%=      5-min Rain = 0
KPD2 130021Z 01010KT 31/19 A2988 RMK A01 T03060187  RH  049%=      5-min Rain = 0
KPD2 130022Z 00010G21KT 31/19 A2988 RMK A01 T03060186  RH  049%=      5-min Rain = 0
KPD2 130023Z 36012KT 31/18 A2988 RMK A01 T03060183  RH  048%=      5-min Rain = 0
KPD2 130024Z 01011KT 31/19 A2988 RMK A01 T03050189  RH  050%=      5-min Rain = 0
KPD2 130025Z 01011KT 31/19 A2988 RMK A01 T03050191  RH  051%=      5-min Rain = 0
KPD2 130026Z 35011KT 30/19 A2988 RMK A01 T03030187  RH  050%=      5-min Rain = 0
KPD2 130027Z 01010G15KT 30/18 A2988 RMK A01 T03020180  RH  048%=      5-min Rain = 0
KPD2 130028Z 01009KT 30/18 A2988 RMK A01 T03030177  RH  047%=      5-min Rain = 0
KPD2 130029Z 01011G18KT 30/17 A2988 RMK A01 T03040174  RH  046%=      5-min Rain = 0
KPD2 130030Z 00010G15KT 31/17 A2988 RMK A01 T03050172  RH  045%=      5-min Rain = 0
KPD2 130031Z 02010G18KT 31/17 A2988 RMK A01 T03060171  RH  044%=      5-min Rain = 0
KPD2 130032Z 01010G17KT 31/17 A2988 RMK A01 T03070171  RH  044%=      5-min Rain = 0
KPD2 130033Z 02011G19KT 31/17 A2988 RMK A01 T03080174  RH  045%=      5-min Rain = 0
KPD2 130034Z 01013G19KT 31/18 A2988 RMK A01 T03080176  RH  045%=      5-min Rain = 0
KPD2 130035Z 01011G17KT 31/18 A2989 RMK A01 T03070178  RH  046%=      5-min Rain = 0
KPD2 130036Z 36011G16KT 31/18 A2989 RMK A01 T03060180  RH  047%=      5-min Rain = 0
KPD2 130037Z 01014KT 31/18 A2989 RMK A01 T03050184  RH  048%=      5-min Rain = 0
KPD2 130038Z 00013KT 30/19 A2989 RMK A01 T03030187  RH  050%=      5-min Rain = 0
KPD2 130039Z 00012G17KT 30/19 A2989 RMK A01 T03020189  RH  051%=      5-min Rain = 0
KPD2 130040Z 01012KT 30/19 A2989 RMK A01 T03000191  RH  052%=      5-min Rain = 0
KPD2 130041Z 36010G15KT 30/19 A2989 RMK A01 T02990189  RH  052%=      5-min Rain = 0
KPD2 130042Z 36013G18KT 30/19 A2989 RMK A01 T02970190  RH  052%=      5-min Rain = 0
KPD2 130043Z 36011G16KT 30/19 A2989 RMK A01 T02960189  RH  052%=      5-min Rain = 0
KPD2 130044Z 01011G16KT 30/19 A2989 RMK A01 T02950189  RH  053%=      5-min Rain = 0
KPD2 130045Z 00009G15KT 30/19 A2989 RMK A01 T02950189  RH  053%=      5-min Rain = 0
KPD2 130046Z 35010KT 30/19 A2989 RMK A01 T02950189  RH  053%=      5-min Rain = 0
KPD2 130047Z 34012KT 30/19 A2989 RMK A01 T02950189  RH  053%=      5-min Rain = 0
KPD2 130048Z 34007G14KT 29/19 A2989 RMK A01 T02940190  RH  053%=      5-min Rain = 0
KPD2 130049Z 34008KT 29/19 A2989 RMK A01 T02940190  RH  054%=      5-min Rain = 0
KPD2 130050Z 33009KT 29/19 A2989 RMK A01 T02930192  RH  054%=      5-min Rain = 0
KPD2 130051Z 32008G13KT 29/19 A2989 RMK A01 T02930193  RH  055%=      5-min Rain = 0
KPD2 130052Z 32008KT 29/19 A299 RMK A01 T02930194  RH  055%=      5-min Rain = 0
KPD2 130053Z 33007KT 29/19 A2989 RMK A01 T02920194  RH  056%=      5-min Rain = 0
KPD2 130054Z 33008KT 29/20 A2989 RMK A01 T02910196  RH  056%=      5-min Rain = 0
KPD2 130055Z 34008G13KT 29/20 A2989 RMK A01 T02900196  RH  057%=      5-min Rain = 0
KPD2 130056Z 36010G16KT 29/20 A2989 RMK A01 T02900197  RH  057%=      5-min Rain = 0
KPD2 130057Z 36010G17KT 29/20 A2989 RMK A01 T02890196  RH  058%=      5-min Rain = 0
KPD2 130058Z 00008G13KT 29/20 A2989 RMK A01 T02880197  RH  058%=      5-min Rain = 0
KPD2 130059Z 02005G11KT 29/20 A2989 RMK A01 T02870197  RH  058%=      5-min Rain = 0
KPD2 130100Z 02002KT 29/20 A299 RMK A01 T02870197  RH  058%=      5-min Rain = 0
KPD2 130101Z 05009G18KT 29/19 A299 RMK A01 T02870191  RH  056%=      5-min Rain = 0
KPD2 130102Z 11009KT 29/19 A299 RMK A01 T02870187  RH  055%=      5-min Rain = 0
KPD2 130103Z 35007KT 29/19 A2989 RMK A01 T02890188  RH  054%=      5-min Rain = 0
KPD2 130104Z 07005G11KT 29/19 A299 RMK A01 T02900189  RH  054%=      5-min Rain = 0
KPD2 130105Z 06007G12KT 29/19 A299 RMK A01 T02900187  RH  054%=      5-min Rain = 0
KPD2 130106Z 09010G15KT 29/19 A2989 RMK A01 T02900187  RH  054%=      5-min Rain = 0
KPD2 130107Z 08004G9KT 29/19 A2989 RMK A01 T02900188  RH  054%=      5-min Rain = 0
KPD2 130108Z 29003KT 29/19 A2989 RMK A01 T02900188  RH  054%=      5-min Rain = 0
KPD2 130109Z 34004G10KT 29/18 A2989 RMK A01 T02900183  RH  052%=      5-min Rain = 0
KPD2 130110Z 01004KT 29/18 A299 RMK A01 T02920182  RH  052%=      5-min Rain = 0
KPD2 130111Z 31004KT 29/18 A2989 RMK A01 T02930183  RH  052%=      5-min Rain = 0
KPD2 130112Z 34008G15KT 29/19 A2989 RMK A01 T02930187  RH  053%=      5-min Rain = 0
KPD2 130113Z 34008KT 29/19 A2989 RMK A01 T02930190  RH  054%=      5-min Rain = 0
KPD2 130114Z 35013G19KT 29/19 A2989 RMK A01 T02910193  RH  055%=      5-min Rain = 0
KPD2 130115Z 35010KT 29/19 A299 RMK A01 T02890194  RH  057%=      5-min Rain = 0
KPD2 130116Z 36011KT 29/19 A299 RMK A01 T02870194  RH  057%=      5-min Rain = 0
KPD2 130117Z 35008KT 29/19 A299 RMK A01 T02860194  RH  057%=      5-min Rain = 0
KPD2 130118Z 36006KT 29/19 A299 RMK A01 T02850193  RH  057%=      5-min Rain = 0
KPD2 130119Z 01006G11KT 29/19 A299 RMK A01 T02850193  RH  057%=      5-min Rain = 0
KPD2 130120Z 01009G15KT 29/19 A299 RMK A01 T02850192  RH  057%=      5-min Rain = 0
KPD2 130121Z 03005KT 29/19 A299 RMK A01 T02850191  RH  057%=      5-min Rain = 0
KPD2 130122Z 02006G12KT 29/19 A299 RMK A01 T02850190  RH  056%=      5-min Rain = 0
KPD2 130123Z 03009KT 29/19 A299 RMK A01 T02850188  RH  055%=      5-min Rain = 0
KPD2 130124Z 05011KT 29/19 A299 RMK A01 T02860187  RH  055%=      5-min Rain = 0
KPD2 130125Z 02005KT 29/19 A299 RMK A01 T02880188  RH  055%=      5-min Rain = 0
KPD2 130126Z 01006KT 29/19 A299 RMK A01 T02880186  RH  054%=      5-min Rain = 0
KPD2 130127Z 01006G12KT 29/19 A299 RMK A01 T02890186  RH  054%=      5-min Rain = 0
KPD2 130128Z 03004G13KT 29/18 A299 RMK A01 T02890184  RH  053%=      5-min Rain = 0
KPD2 130129Z 01005G11KT 29/18 A299 RMK A01 T02900183  RH  052%=      5-min Rain = 0
KPD2 130130Z 02006G12KT 29/18 A299 RMK A01 T02910182  RH  052%=      5-min Rain = 0
KPD2 130131Z 02001KT 29/18 A299 RMK A01 T02910183  RH  052%=      5-min Rain = 0
KPD2 130132Z 00003KT 29/18 A299 RMK A01 T02920182  RH  052%=      5-min Rain = 0
KPD2 130133Z 01004KT 29/18 A299 RMK A01 T02920183  RH  052%=      5-min Rain = 0
KPD2 130134Z 35004KT 29/18 A299 RMK A01 T02920183  RH  052%=      5-min Rain = 0
KPD2 130135Z 35002KT 29/18 A299 RMK A01 T02920184  RH  052%=      5-min Rain = 0
KPD2 130136Z 31004KT 29/18 A2991 RMK A01 T02920184  RH  052%=      5-min Rain = 0
KPD2 130137Z 34004KT 29/18 A2991 RMK A01 T02920184  RH  052%=      5-min Rain = 0
KPD2 130138Z 26003KT 29/19 A2991 RMK A01 T02920185  RH  052%=      5-min Rain = 0
KPD2 130139Z 30002KT 29/19 A2991 RMK A01 T02920185  RH  052%=      5-min Rain = 0
KPD2 130140Z 16003KT 29/19 A2991 RMK A01 T02920185  RH  052%=      5-min Rain = 0
KPD2 130141Z 13003KT 29/18 A2992 RMK A01 T02920184  RH  052%=      5-min Rain = 0
KPD2 130142Z 15006KT 29/19 A2992 RMK A01 T02920186  RH  053%=      5-min Rain = 0
KPD2 130143Z 13006KT 29/19 A2992 RMK A01 T02910188  RH  054%=      5-min Rain = 0
KPD2 130144Z 19004KT 29/19 A2992 RMK A01 T02900188  RH  054%=      5-min Rain = 0
KPD2 130145Z 16004KT 29/19 A2992 RMK A01 T02890188  RH  054%=      5-min Rain = 0
KPD2 130146Z 15004KT 29/19 A2992 RMK A01 T02880188  RH  055%=      5-min Rain = 0
KPD2 130147Z 17008G14KT 29/19 A2992 RMK A01 T02880188  RH  055%=      5-min Rain = 0
KPD2 130148Z 14009KT 29/19 A2992 RMK A01 T02870189  RH  056%=      5-min Rain = 0
KPD2 130149Z 14008KT 29/19 A2992 RMK A01 T02860190  RH  056%=      5-min Rain = 0
KPD2 130150Z 13010KT 29/19 A2992 RMK A01 T02850191  RH  057%=      5-min Rain = 0
KPD2 130151Z 15006KT 28/19 A2992 RMK A01 T02840191  RH  057%=      5-min Rain = 0
KPD2 130152Z 16005KT 28/19 A2992 RMK A01 T02840191  RH  057%=      5-min Rain = 0
KPD2 130153Z 15003KT 28/19 A2992 RMK A01 T02830191  RH  057%=      5-min Rain = 0
KPD2 130154Z 14003KT 28/19 A2992 RMK A01 T02830191  RH  057%=      5-min Rain = 0
KPD2 130155Z 15003KT 28/19 A2992 RMK A01 T02820189  RH  057%=      5-min Rain = 0
KPD2 130156Z 13004KT 28/19 A2991 RMK A01 T02820187  RH  056%=      5-min Rain = 0
KPD2 130157Z 14007KT 28/19 A2991 RMK A01 T02820186  RH  056%=      5-min Rain = 0
KPD2 130158Z 12005G10KT 28/19 A2991 RMK A01 T02820185  RH  056%=      5-min Rain = 0
KPD2 130159Z 13009KT 28/19 A2991 RMK A01 T02830185  RH  055%=      5-min Rain = 0
KPD2 130200Z 13007G13KT 28/19 A2991 RMK A01 T02830185  RH  055%=      5-min Rain = 0
KPD2 130201Z 12007G12KT 28/18 A2991 RMK A01 T02840184  RH  055%=      5-min Rain = 0
KPD2 130202Z 13005KT 28/19 A2991 RMK A01 T02840185  RH  055%=      5-min Rain = 0
KPD2 130203Z 12005KT 28/18 A2991 RMK A01 T02840184  RH  055%=      5-min Rain = 0
KPD2 130204Z 12002KT 28/18 A2991 RMK A01 T02840183  RH  054%=      5-min Rain = 0
KPD2 130205Z 07002KT 28/18 A2991 RMK A01 T02840183  RH  054%=      5-min Rain = 0
KPD2 130206Z 04007KT 28/18 A2991 RMK A01 T02840184  RH  054%=      5-min Rain = 0
KPD2 130207Z 05007G12KT 28/18 A2991 RMK A01 T02840183  RH  054%=      5-min Rain = 0
KPD2 130208Z 04005KT 28/18 A2991 RMK A01 T02840183  RH  054%=      5-min Rain = 0
KPD2 130209Z 01006G13KT 28/18 A2991 RMK A01 T02840183  RH  054%=      5-min Rain = 0
KPD2 130210Z 05008G14KT 28/18 A2991 RMK A01 T02840184  RH  055%=      5-min Rain = 0
KPD2 130211Z 04007G12KT 28/18 A2991 RMK A01 T02840183  RH  054%=      5-min Rain = 0
KPD2 130212Z 05007G12KT 28/18 A2991 RMK A01 T02840183  RH  055%=      5-min Rain = 0
KPD2 130213Z 04006G16KT 28/18 A2991 RMK A01 T02840183  RH  054%=      5-min Rain = 0
KPD2 130214Z 04010KT 28/18 A2991 RMK A01 T02830182  RH  054%=      5-min Rain = 0
KPD2 130215Z 07008KT 28/18 A2991 RMK A01 T02830182  RH  054%=      5-min Rain = 0
KPD2 130216Z 07006KT 28/18 A2991 RMK A01 T02840182  RH  054%=      5-min Rain = 0
KPD2 130217Z 05008G13KT 28/18 A2991 RMK A01 T02830181  RH  054%=      5-min Rain = 0
KPD2 130218Z 09011G17KT 28/18 A2991 RMK A01 T02840181  RH  054%=      5-min Rain = 0
KPD2 130219Z 06010G20KT 28/18 A2991 RMK A01 T02840181  RH  054%=      5-min Rain = 0
KPD2 130220Z 07010G16KT 28/18 A2991 RMK A01 T02840181  RH  054%=      5-min Rain = 0
KPD2 130221Z 06007KT 28/18 A2992 RMK A01 T02840181  RH  054%=      5-min Rain = 0
KPD2 130222Z 08011G17KT 28/18 A2991 RMK A01 T02840181  RH  054%=      5-min Rain = 0
KPD2 130223Z 08007G12KT 28/18 A2991 RMK A01 T02840182  RH  054%=      5-min Rain = 0
KPD2 130224Z 10009G16KT 28/18 A2991 RMK A01 T02840183  RH  054%=      5-min Rain = 0
KPD2 130225Z 05012G17KT 28/18 A2991 RMK A01 T02830183  RH  055%=      5-min Rain = 0
KPD2 130226Z 06010G15KT 28/18 A2991 RMK A01 T02830184  RH  055%=      5-min Rain = 0
KPD2 130227Z 09007G13KT 28/18 A2991 RMK A01 T02820183  RH  055%=      5-min Rain = 0
KPD2 130228Z 04005KT 28/18 A2991 RMK A01 T02820184  RH  055%=      5-min Rain = 0
KPD2 130229Z 06007G15KT 28/18 A2991 RMK A01 T02810184  RH  055%=      5-min Rain = 0
KPD2 130230Z 09009KT 28/18 A2991 RMK A01 T02810184  RH  055%=      5-min Rain = 0
KPD2 130231Z 08009G16KT 28/18 A2991 RMK A01 T02810183  RH  055%=      5-min Rain = 0
KPD2 130232Z 05010G16KT 28/18 A2992 RMK A01 T02810183  RH  055%=      5-min Rain = 0
KPD2 130233Z 08010G20KT 28/18 A2992 RMK A01 T02810184  RH  056%=      5-min Rain = 0
KPD2 130234Z 10004G10KT 28/18 A2992 RMK A01 T02800184  RH  056%=      5-min Rain = 0
KPD2 130235Z 07004G11KT 28/18 A2992 RMK A01 T02800184  RH  056%=      5-min Rain = 0
KPD2 130236Z 08005G11KT 28/18 A2992 RMK A01 T02800184  RH  056%=      5-min Rain = 0
KPD2 130237Z 07008G16KT 28/18 A2992 RMK A01 T02790184  RH  056%=      5-min Rain = 0
KPD2 130238Z 08008G14KT 28/19 A2992 RMK A01 T02790185  RH  057%=      5-min Rain = 0
KPD2 130239Z 07003G8KT 28/19 A2992 RMK A01 T02790185  RH  057%=      5-min Rain = 0
KPD2 130240Z 05006KT 28/19 A2992 RMK A01 T02780185  RH  057%=      5-min Rain = 0
KPD2 130241Z 07008G18KT 28/19 A2993 RMK A01 T02780186  RH  057%=      5-min Rain = 0
KPD2 130242Z 10008G21KT 28/19 A2992 RMK A01 T02780186  RH  057%=      5-min Rain = 0
KPD2 130243Z 03002KT 28/19 A2992 RMK A01 T02770186  RH  058%=      5-min Rain = 0
KPD2 130244Z 06005KT 28/19 A2993 RMK A01 T02770187  RH  058%=      5-min Rain = 0
KPD2 130245Z 08009G14KT 28/19 A2993 RMK A01 T02760187  RH  058%=      5-min Rain = 0
KPD2 130246Z 06005KT 28/19 A2993 RMK A01 T02760188  RH  059%=      5-min Rain = 0
KPD2 130247Z 06006KT 28/19 A2993 RMK A01 T02750188  RH  059%=      5-min Rain = 0
KPD2 130248Z 10003KT 28/19 A2993 RMK A01 T02750188  RH  059%=      5-min Rain = 0
KPD2 130249Z 14003KT 28/19 A2993 RMK A01 T02750188  RH  059%=      5-min Rain = 0
KPD2 130250Z 22001KT 28/19 A2993 RMK A01 T02750188  RH  059%=      5-min Rain = 0
KPD2 130251Z 23002KT 27/19 A2993 RMK A01 T02740188  RH  059%=      5-min Rain = 0
KPD2 130252Z 25004KT 27/19 A2993 RMK A01 T02740188  RH  059%=      5-min Rain = 0
KPD2 130253Z 29004KT 27/19 A2993 RMK A01 T02740188  RH  060%=      5-min Rain = 0
KPD2 130254Z 29003KT 27/19 A2994 RMK A01 T02730189  RH  060%=      5-min Rain = 0
KPD2 130255Z 20003KT 27/19 A2994 RMK A01 T02730188  RH  060%=      5-min Rain = 0
KPD2 130256Z 19005KT 27/19 A2994 RMK A01 T02730188  RH  060%=      5-min Rain = 0
KPD2 130257Z 22006KT 27/19 A2994 RMK A01 T02730187  RH  059%=      5-min Rain = 0
KPD2 130258Z 21004KT 27/19 A2994 RMK A01 T02730187  RH  059%=      5-min Rain = 0
KPD2 130259Z 19004KT 27/19 A2995 RMK A01 T02730187  RH  059%=      5-min Rain = 0
KPD2 130300Z 22003KT 27/19 A2995 RMK A01 T02730187  RH  059%=      5-min Rain = 0
KPD2 130301Z 25005KT 27/19 A2995 RMK A01 T02730187  RH  059%=      5-min Rain = 0
KPD2 130302Z 27006KT 27/19 A2996 RMK A01 T02730188  RH  060%=      5-min Rain = 0
KPD2 130303Z 29009KT 27/19 A2997 RMK A01 T02730189  RH  060%=      5-min Rain = 0
KPD2 130304Z 32011G17KT 27/19 A2998 RMK A01 T02730189  RH  060%=      5-min Rain = 0
KPD2 130305Z 31010KT 27/19 A2998 RMK A01 T02730189  RH  060%=      5-min Rain = 0
KPD2 130306Z 30011KT 27/19 A2999 RMK A01 T02720189  RH  060%=      5-min Rain = 0
KPD2 130307Z 29008KT 27/19 A2999 RMK A01 T02720191  RH  061%=      5-min Rain = 0
KPD2 130308Z 31005KT 27/19 A2999 RMK A01 T02720192  RH  062%=      5-min Rain = 0
KPD2 130309Z 28002KT 27/19 A2999 RMK A01 T02710191  RH  062%=      5-min Rain = 0
KPD2 130310Z 30003KT 27/19 A2999 RMK A01 T02710191  RH  062%=      5-min Rain = 0
KPD2 130311Z 30003KT 27/19 A2999 RMK A01 T02700191  RH  062%=      5-min Rain = 0
KPD2 130312Z 27002KT 27/19 A2999 RMK A01 T02690191  RH  062%=      5-min Rain = 0
KPD2 130313Z 27003KT 27/19 A2999 RMK A01 T02690191  RH  062%=      5-min Rain = 0
KPD2 130314Z 31005KT 27/19 A2999 RMK A01 T02690191  RH  062%=      5-min Rain = 0
KPD2 130315Z 32006KT 27/19 A30 RMK A01 T02690190  RH  062%=      5-min Rain = 0
KPD2 130316Z 32006KT 27/19 A30 RMK A01 T02690189  RH  062%=      5-min Rain = 0
KPD2 130317Z 32005KT 27/19 A30 RMK A01 T02680189  RH  062%=      5-min Rain = 0
KPD2 130318Z 31007KT 27/19 A30 RMK A01 T02680189  RH  062%=      5-min Rain = 0
KPD2 130319Z 26004KT 27/19 A30 RMK A01 T02680189  RH  062%=      5-min Rain = 0
KPD2 130320Z 22002KT 27/19 A30 RMK A01 T02680189  RH  062%=      5-min Rain = 0
KPD2 130321Z 24000KT 27/19 A30 RMK A01 T02680189  RH  062%=      5-min Rain = 0
KPD2 130322Z 27002KT 27/19 A30 RMK A01 T02680189  RH  062%=      5-min Rain = 0
KPD2 130323Z 36005KT 27/19 A30 RMK A01 T02670188  RH  062%=      5-min Rain = 0
KPD2 130324Z 01006KT 27/19 A30 RMK A01 T02670187  RH  062%=      5-min Rain = 0
KPD2 130325Z 32005G11KT 27/19 A30 RMK A01 T02670188  RH  062%=      5-min Rain = 0
KPD2 130326Z 30007KT 27/19 A30 RMK A01 T02660188  RH  062%=      5-min Rain = 0
KPD2 130327Z 32007KT 27/19 A30 RMK A01 T02660187  RH  062%=      5-min Rain = 0
KPD2 130328Z 34005KT 27/19 A30 RMK A01 T02660187  RH  062%=      5-min Rain = 0
KPD2 130329Z 34005KT 27/19 A30 RMK A01 T02660187  RH  062%=      5-min Rain = 0
KPD2 130330Z 32003KT 27/19 A30 RMK A01 T02660187  RH  062%=      5-min Rain = 0
KPD2 130331Z 33005G10KT 27/19 A30 RMK A01 T02650186  RH  062%=      5-min Rain = 0
KPD2 130332Z 33008G19KT 27/19 A30 RMK A01 T02650186  RH  062%=      5-min Rain = 0
KPD2 130333Z 35006G11KT 27/19 A30 RMK A01 T02650186  RH  062%=      5-min Rain = 0
KPD2 130334Z 34006KT 27/19 A2999 RMK A01 T02650185  RH  061%=      5-min Rain = 0
KPD2 130335Z 32006KT 27/19 A2999 RMK A01 T02650185  RH  062%=      5-min Rain = 0
KPD2 130336Z 33009KT 27/19 A2999 RMK A01 T02650185  RH  062%=      5-min Rain = 0
KPD2 130337Z 32008G14KT 27/19 A2999 RMK A01 T02650185  RH  062%=      5-min Rain = 0
KPD2 130338Z 32009G15KT 27/19 A2999 RMK A01 T02650185  RH  062%=      5-min Rain = 0
KPD2 130339Z 35005G15KT 26/19 A30 RMK A01 T02640185  RH  062%=      5-min Rain = 0
KPD2 130340Z 33009G17KT 26/19 A30 RMK A01 T02640185  RH  062%=      5-min Rain = 0
KPD2 130341Z 35008G13KT 26/19 A30 RMK A01 T02640186  RH  062%=      5-min Rain = 0
KPD2 130342Z 35009G21KT 26/19 A30 RMK A01 T02630186  RH  062%=      5-min Rain = 0
KPD2 130343Z 34008G15KT 26/19 A30 RMK A01 T02620186  RH  063%=      5-min Rain = 0
KPD2 130344Z 33009G15KT 26/19 A30 RMK A01 T02620186  RH  063%=      5-min Rain = 0
KPD2 130345Z 32005KT 26/19 A30 RMK A01 T02610185  RH  063%=      5-min Rain = 0
KPD2 130346Z 33006G13KT 26/19 A2999 RMK A01 T02610185  RH  063%=      5-min Rain = 0
KPD2 130347Z 33008G14KT 26/19 A30 RMK A01 T02610186  RH  063%=      5-min Rain = 0
KPD2 130348Z 32004G9KT 26/19 A2999 RMK A01 T02600185  RH  063%=      5-min Rain = 0
KPD2 130349Z 35006KT 26/19 A2999 RMK A01 T02600185  RH  063%=      5-min Rain = 0
KPD2 130350Z 35007G16KT 26/19 A30 RMK A01 T02600185  RH  064%=      5-min Rain = 0
KPD2 130351Z 32004G10KT 26/19 A30 RMK A01 T02590185  RH  064%=      5-min Rain = 0
KPD2 130352Z 31006G11KT 26/19 A30 RMK A01 T02590185  RH  064%=      5-min Rain = 0
KPD2 130353Z 12005KT 26/19 A30 RMK A01 T02590185  RH  064%=      5-min Rain = 0
KPD2 130354Z 28003KT 26/19 A30 RMK A01 T02590186  RH  064%=      5-min Rain = 0
KPD2 130355Z 35005G11KT 26/19 A30 RMK A01 T02580186  RH  064%=      5-min Rain = 0
KPD2 130356Z 10002KT 26/19 A30 RMK A01 T02580186  RH  065%=      5-min Rain = 0
KPD2 130357Z 25002KT 26/19 A30 RMK A01 T02570186  RH  065%=      5-min Rain = 0
KPD2 130358Z 26003KT 26/19 A30 RMK A01 T02570186  RH  065%=      5-min Rain = 0
KPD2 130359Z 24002KT 26/19 A30 RMK A01 T02570186  RH  065%=      5-min Rain = 0
KPD2 130400Z 24004KT 26/19 A30 RMK A01 T02570186  RH  065%=      5-min Rain = 0
KPD2 130401Z 14006G12KT 26/19 A30 RMK A01 T02560186  RH  065%=      5-min Rain = 0
KPD2 130402Z 12006G11KT 26/19 A30 RMK A01 T02560187  RH  065%=      5-min Rain = 0
KPD2 130403Z 20002KT 26/19 A30 RMK A01 T02550187  RH  066%=      5-min Rain = 0
KPD2 130404Z 11003G10KT 25/19 A30 RMK A01 T02540186  RH  066%=      5-min Rain = 0
KPD2 130405Z 03004KT 25/19 A30 RMK A01 T02530187  RH  067%=      5-min Rain = 0
KPD2 130406Z 32003KT 25/19 A30 RMK A01 T02520187  RH  067%=      5-min Rain = 0
KPD2 130407Z 30005G10KT 25/19 A2999 RMK A01 T02510187  RH  067%=      5-min Rain = 0
KPD2 130408Z 35005G10KT 25/19 A30 RMK A01 T02510187  RH  067%=      5-min Rain = 0
KPD2 130409Z 12006G11KT 25/19 A2999 RMK A01 T02510187  RH  068%=      5-min Rain = 0
KPD2 130410Z 11004KT 25/19 A2999 RMK A01 T02510187  RH  068%=      5-min Rain = 0
KPD2 130411Z 13005G11KT 25/19 A30 RMK A01 T02510187  RH  068%=      5-min Rain = 0
KPD2 130412Z 09004G10KT 25/19 A30 RMK A01 T02500187  RH  068%=      5-min Rain = 0
KPD2 130413Z 01004KT 25/19 A30 RMK A01 T02500187  RH  068%=      5-min Rain = 0
KPD2 130414Z 04005G13KT 25/19 A30 RMK A01 T02500187  RH  068%=      5-min Rain = 0
KPD2 130415Z 33005G11KT 25/19 A30 RMK A01 T02490187  RH  068%=      5-min Rain = 0
KPD2 130416Z 10004KT 25/19 A30 RMK A01 T02490187  RH  069%=      5-min Rain = 0
KPD2 130417Z 12006KT 25/19 A30 RMK A01 T02490187  RH  068%=      5-min Rain = 0
KPD2 130418Z 15004KT 25/19 A30 RMK A01 T02490187  RH  068%=      5-min Rain = 0
KPD2 130419Z 14004KT 25/19 A30 RMK A01 T02490187  RH  068%=      5-min Rain = 0
KPD2 130420Z 08007G12KT 25/19 A30 RMK A01 T02490187  RH  068%=      5-min Rain = 0
KPD2 130421Z 10006KT 25/19 A30 RMK A01 T02490187  RH  068%=      5-min Rain = 0
KPD2 130422Z 11007G13KT 25/19 A30 RMK A01 T02490187  RH  068%=      5-min Rain = 0
KPD2 130423Z 11004G13KT 25/19 A30 RMK A01 T02490187  RH  068%=      5-min Rain = 0
KPD2 130424Z 14003KT 25/19 A30 RMK A01 T02490187  RH  068%=      5-min Rain = 0
KPD2 130425Z 14008G13KT 25/19 A30 RMK A01 T02490188  RH  069%=      5-min Rain = 0
KPD2 130426Z 12009KT 25/19 A30 RMK A01 T02480188  RH  069%=      5-min Rain = 0
KPD2 130427Z 06003KT 25/19 A30 RMK A01 T02480187  RH  069%=      5-min Rain = 0
KPD2 130428Z 11013G19KT 25/19 A30 RMK A01 T02480187  RH  069%=      5-min Rain = 0
KPD2 130429Z 10010KT 25/19 A30 RMK A01 T02480188  RH  069%=      5-min Rain = 0
KPD2 130430Z 05008G14KT 25/19 A2999 RMK A01 T02470188  RH  070%=      5-min Rain = 0
KPD2 130431Z 05003G8KT 25/19 A2999 RMK A01 T02470188  RH  070%=      5-min Rain = 0
KPD2 130432Z 11007G14KT 25/19 A2999 RMK A01 T02460188  RH  070%=      5-min Rain = 0
KPD2 130433Z 07010G19KT 25/19 A2999 RMK A01 T02460187  RH  070%=      5-min Rain = 0
KPD2 130434Z 06008G16KT 25/19 A2999 RMK A01 T02450187  RH  070%=      5-min Rain = 0
KPD2 130435Z 06008G14KT 25/19 A2999 RMK A01 T02450187  RH  070%=      5-min Rain = 0
KPD2 130436Z 07004G9KT 25/19 A2999 RMK A01 T02460187  RH  070%=      5-min Rain = 0
KPD2 130437Z 23002KT 25/19 A2999 RMK A01 T02460187  RH  070%=      5-min Rain = 0
KPD2 130438Z 19004G9KT 25/19 A2999 RMK A01 T02450186  RH  070%=      5-min Rain = 0
KPD2 130439Z 03006KT 25/19 A2999 RMK A01 T02460186  RH  069%=      5-min Rain = 0
KPD2 130440Z 07003KT 25/19 A2999 RMK A01 T02460186  RH  069%=      5-min Rain = 0
KPD2 130441Z 09005G14KT 25/19 A2999 RMK A01 T02460186  RH  069%=      5-min Rain = 0
KPD2 130442Z 13009KT 25/18 A2999 RMK A01 T02460184  RH  068%=      5-min Rain = 0
KPD2 130443Z 12007G13KT 25/18 A2999 RMK A01 T02470183  RH  068%=      5-min Rain = 0
KPD2 130444Z 04005KT 25/18 A2999 RMK A01 T02490184  RH  067%=      5-min Rain = 0
KPD2 130445Z 10008KT 25/18 A2999 RMK A01 T02490183  RH  067%=      5-min Rain = 0
KPD2 130446Z 11008G14KT 25/18 A2999 RMK A01 T02490183  RH  066%=      5-min Rain = 0
KPD2 130447Z 09008G15KT 25/18 A2999 RMK A01 T02500182  RH  066%=      5-min Rain = 0
KPD2 130448Z 09007KT 25/18 A2999 RMK A01 T02500182  RH  066%=      5-min Rain = 0
KPD2 130449Z 09007G13KT 25/18 A2999 RMK A01 T02510182  RH  065%=      5-min Rain = 0
KPD2 130450Z 08005G11KT 25/18 A2999 RMK A01 T02510182  RH  065%=      5-min Rain = 0
KPD2 130451Z 07010KT 25/18 A2999 RMK A01 T02510182  RH  065%=      5-min Rain = 0
KPD2 130452Z 11006KT 25/18 A2999 RMK A01 T02520182  RH  065%=      5-min Rain = 0
KPD2 130453Z 13007G13KT 25/18 A2999 RMK A01 T02520182  RH  065%=      5-min Rain = 0
KPD2 130454Z 10005KT 25/18 A2999 RMK A01 T02520182  RH  065%=      5-min Rain = 0
KPD2 130455Z 12011G18KT 25/18 A2999 RMK A01 T02520182  RH  065%=      5-min Rain = 0
KPD2 130456Z 08006KT 25/18 A2999 RMK A01 T02520182  RH  065%=      5-min Rain = 0
KPD2 130457Z 04003KT 25/18 A2999 RMK A01 T02520181  RH  065%=      5-min Rain = 0
KPD2 130458Z 35002G7KT 25/18 A2999 RMK A01 T02520181  RH  065%=      5-min Rain = 0
KPD2 130459Z 12009G16KT 25/18 A2999 RMK A01 T02520181  RH  065%=      5-min Rain = 0

Page generated in 0.0861 seconds.